<?xml version="1.0" encoding="UTF-8"?>
<gpx version="1.1" creator="2bulu-scraper" xmlns="http://www.topografix.com/GPX/1/1">
  <metadata><name>昭通鲁甸轿顶山</name><desc>source: 2bulu.com trackId=88139685; exported 2026-09-01T18:32:54.685Z</desc>
    <bounds minlat="27.172196" minlon="103.322487" maxlat="27.189897" maxlon="103.334066"/>
    <link href="https://www.2bulu.com/track/t-jQcv%252F%252B0VPFTp%252FR2KBg5Tzw%253D%253D.htm"><text>2bulu 源页面</text></link>
  </metadata>
  <wpt lat="27.182076" lon="103.331429"><ele>2879</ele><name></name></wpt>
  <wpt lat="27.182198" lon="103.331157"><ele>2887</ele><name></name></wpt>
  <wpt lat="27.182147" lon="103.330705"><ele>2883</ele><name></name></wpt>
  <wpt lat="27.182359" lon="103.330603"><ele>2884</ele><name></name></wpt>
  <wpt lat="27.183681" lon="103.330441"><ele>2907</ele><name></name></wpt>
  <wpt lat="27.18346" lon="103.330494"><ele>2899</ele><name></name></wpt>
  <wpt lat="27.181433" lon="103.332004"><ele>2887</ele><name></name></wpt>
  <wpt lat="27.181327" lon="103.332092"><ele>2884</ele><name></name></wpt>
  <wpt lat="27.181214" lon="103.332147"><ele>2883</ele><name></name></wpt>
  <wpt lat="27.180476" lon="103.332198"><ele>2869</ele><name></name></wpt>
  <wpt lat="27.180476" lon="103.332198"><ele>2869</ele><name></name></wpt>
  <wpt lat="27.180581" lon="103.332161"><ele>2871</ele><name></name></wpt>
  <wpt lat="27.179006" lon="103.33058"><ele>2913</ele><name></name></wpt>
  <wpt lat="27.178704" lon="103.330318"><ele>2918</ele><name></name></wpt>
  <wpt lat="27.178608" lon="103.329972"><ele>2923</ele><name></name></wpt>
  <wpt lat="27.178419" lon="103.329478"><ele>2943</ele><name></name></wpt>
  <wpt lat="27.178217" lon="103.328865"><ele>2954</ele><name></name></wpt>
  <wpt lat="27.178427" lon="103.328568"><ele>2959</ele><name></name></wpt>
  <wpt lat="27.177686" lon="103.328561"><ele>2993</ele><name></name></wpt>
  <wpt lat="27.177686" lon="103.328561"><ele>2993</ele><name></name></wpt>
  <wpt lat="27.177453" lon="103.329298"><ele>2981</ele><name></name></wpt>
  <wpt lat="27.177714" lon="103.330137"><ele>2947</ele><name></name></wpt>
  <wpt lat="27.177778" lon="103.330136"><ele>2946</ele><name></name></wpt>
  <wpt lat="27.177514" lon="103.330431"><ele>2939</ele><name></name></wpt>
  <wpt lat="27.17741" lon="103.330792"><ele>2940</ele><name></name></wpt>
  <wpt lat="27.177399" lon="103.330742"><ele>2944</ele><name></name></wpt>
  <wpt lat="27.176529" lon="103.330923"><ele>2947</ele><name></name></wpt>
  <wpt lat="27.176367" lon="103.33086"><ele>2950</ele><name></name></wpt>
  <wpt lat="27.176284" lon="103.330811"><ele>2956</ele><name></name></wpt>
  <wpt lat="27.176095" lon="103.331129"><ele>2957</ele><name></name></wpt>
  <wpt lat="27.17449" lon="103.331073"><ele>2956</ele><name></name></wpt>
  <wpt lat="27.17449" lon="103.331073"><ele>2956</ele><name></name></wpt>
  <trk><name>昭通鲁甸轿顶山</name>
      <trkseg>
        <trkpt lat="27.182092" lon="103.33138"><ele>2885.1184</ele><time>2026-08-08T23:18:02.000Z</time></trkpt>
        <trkpt lat="27.182125" lon="103.331342"><ele>2885.4644</ele><time>2026-08-08T23:18:11.000Z</time></trkpt>
        <trkpt lat="27.182163" lon="103.331305"><ele>2885.0269</ele><time>2026-08-08T23:18:17.000Z</time></trkpt>
        <trkpt lat="27.182184" lon="103.331256"><ele>2885.4387</ele><time>2026-08-08T23:18:22.000Z</time></trkpt>
        <trkpt lat="27.182177" lon="103.331205"><ele>2885.6448</ele><time>2026-08-08T23:18:28.000Z</time></trkpt>
        <trkpt lat="27.182198" lon="103.331157"><ele>2886.7998</ele><time>2026-08-08T23:18:37.000Z</time></trkpt>
        <trkpt lat="27.182214" lon="103.331105"><ele>2889.2415</ele><time>2026-08-08T23:19:01.000Z</time></trkpt>
        <trkpt lat="27.182215" lon="103.331046"><ele>2889.8027</ele><time>2026-08-08T23:19:07.000Z</time></trkpt>
        <trkpt lat="27.182223" lon="103.330996"><ele>2890.2737</ele><time>2026-08-08T23:19:20.000Z</time></trkpt>
        <trkpt lat="27.182221" lon="103.330944"><ele>2888.2173</ele><time>2026-08-08T23:19:29.000Z</time></trkpt>
        <trkpt lat="27.182197" lon="103.330895"><ele>2886.2148</ele><time>2026-08-08T23:19:38.000Z</time></trkpt>
        <trkpt lat="27.182209" lon="103.330841"><ele>2885.9382</ele><time>2026-08-08T23:19:46.000Z</time></trkpt>
        <trkpt lat="27.1822" lon="103.330791"><ele>2884.7986</ele><time>2026-08-08T23:19:53.000Z</time></trkpt>
        <trkpt lat="27.182177" lon="103.330743"><ele>2884.0085</ele><time>2026-08-08T23:20:03.000Z</time></trkpt>
        <trkpt lat="27.182147" lon="103.330705"><ele>2882.9126</ele><time>2026-08-08T23:20:15.000Z</time></trkpt>
        <trkpt lat="27.182191" lon="103.330721"><ele>2881.7463</ele><time>2026-08-08T23:20:41.000Z</time></trkpt>
        <trkpt lat="27.182235" lon="103.330707"><ele>2882.3958</ele><time>2026-08-08T23:20:47.000Z</time></trkpt>
        <trkpt lat="27.182281" lon="103.330685"><ele>2882.7346</ele><time>2026-08-08T23:20:53.000Z</time></trkpt>
        <trkpt lat="27.182306" lon="103.330639"><ele>2882.6907</ele><time>2026-08-08T23:20:57.000Z</time></trkpt>
        <trkpt lat="27.182311" lon="103.330586"><ele>2882.8252</ele><time>2026-08-08T23:21:07.000Z</time></trkpt>
        <trkpt lat="27.182359" lon="103.330603"><ele>2884.186</ele><time>2026-08-08T23:23:40.000Z</time></trkpt>
        <trkpt lat="27.182357" lon="103.330654"><ele>2888.978</ele><time>2026-08-08T23:26:51.000Z</time></trkpt>
        <trkpt lat="27.18235" lon="103.330714"><ele>2889.5715</ele><time>2026-08-08T23:27:06.000Z</time></trkpt>
        <trkpt lat="27.182329" lon="103.330761"><ele>2891.0928</ele><time>2026-08-08T23:27:15.000Z</time></trkpt>
        <trkpt lat="27.182338" lon="103.330812"><ele>2893.0608</ele><time>2026-08-08T23:27:22.000Z</time></trkpt>
        <trkpt lat="27.182356" lon="103.330861"><ele>2894.4878</ele><time>2026-08-08T23:27:29.000Z</time></trkpt>
        <trkpt lat="27.182353" lon="103.330919"><ele>2895.4277</ele><time>2026-08-08T23:27:37.000Z</time></trkpt>
        <trkpt lat="27.182335" lon="103.330967"><ele>2894.8718</ele><time>2026-08-08T23:27:47.000Z</time></trkpt>
        <trkpt lat="27.182325" lon="103.331023"><ele>2896.054</ele><time>2026-08-08T23:27:58.000Z</time></trkpt>
        <trkpt lat="27.182332" lon="103.331079"><ele>2896.817</ele><time>2026-08-08T23:28:06.000Z</time></trkpt>
        <trkpt lat="27.182286" lon="103.331098"><ele>2889.0776</ele><time>2026-08-08T23:28:19.000Z</time></trkpt>
        <trkpt lat="27.18224" lon="103.331115"><ele>2891.8354</ele><time>2026-08-08T23:28:26.000Z</time></trkpt>
        <trkpt lat="27.182193" lon="103.331126"><ele>2892.477</ele><time>2026-08-08T23:28:35.000Z</time></trkpt>
        <trkpt lat="27.182201" lon="103.331178"><ele>2889.5986</ele><time>2026-08-08T23:29:36.000Z</time></trkpt>
        <trkpt lat="27.182212" lon="103.331233"><ele>2891.431</ele><time>2026-08-08T23:29:43.000Z</time></trkpt>
        <trkpt lat="27.182189" lon="103.331282"><ele>2890.692</ele><time>2026-08-08T23:29:50.000Z</time></trkpt>
        <trkpt lat="27.182159" lon="103.331323"><ele>2889.9062</ele><time>2026-08-08T23:29:59.000Z</time></trkpt>
        <trkpt lat="27.182112" lon="103.331331"><ele>2886.8662</ele><time>2026-08-08T23:30:06.000Z</time></trkpt>
        <trkpt lat="27.182093" lon="103.33138"><ele>2886.2512</ele><time>2026-08-08T23:30:12.000Z</time></trkpt>
        <trkpt lat="27.182058" lon="103.331415"><ele>2885.2236</ele><time>2026-08-08T23:30:19.000Z</time></trkpt>
        <trkpt lat="27.182019" lon="103.33145"><ele>2889.4314</ele><time>2026-08-08T23:30:26.000Z</time></trkpt>
        <trkpt lat="27.181974" lon="103.33148"><ele>2888.396</ele><time>2026-08-08T23:30:34.000Z</time></trkpt>
        <trkpt lat="27.181943" lon="103.331521"><ele>2887.7788</ele><time>2026-08-08T23:30:40.000Z</time></trkpt>
        <trkpt lat="27.181891" lon="103.331511"><ele>2888.429</ele><time>2026-08-08T23:30:45.000Z</time></trkpt>
        <trkpt lat="27.181931" lon="103.331456"><ele>2887.581</ele><time>2026-08-08T23:31:54.000Z</time></trkpt>
        <trkpt lat="27.181993" lon="103.331404"><ele>2887.9084</ele><time>2026-08-08T23:31:56.000Z</time></trkpt>
        <trkpt lat="27.182087" lon="103.331374"><ele>2888.1072</ele><time>2026-08-08T23:31:57.000Z</time></trkpt>
        <trkpt lat="27.182141" lon="103.331329"><ele>2888.8289</ele><time>2026-08-08T23:31:59.000Z</time></trkpt>
        <trkpt lat="27.182188" lon="103.33128"><ele>2889.3823</ele><time>2026-08-08T23:32:01.000Z</time></trkpt>
        <trkpt lat="27.182284" lon="103.331223"><ele>2890.604</ele><time>2026-08-08T23:32:04.000Z</time></trkpt>
        <trkpt lat="27.182323" lon="103.331188"><ele>2890.977</ele><time>2026-08-08T23:32:06.000Z</time></trkpt>
        <trkpt lat="27.182362" lon="103.33115"><ele>2890.8665</ele><time>2026-08-08T23:32:08.000Z</time></trkpt>
        <trkpt lat="27.182398" lon="103.331114"><ele>2891.2747</ele><time>2026-08-08T23:32:10.000Z</time></trkpt>
        <trkpt lat="27.182427" lon="103.331042"><ele>2892.1643</ele><time>2026-08-08T23:32:12.000Z</time></trkpt>
        <trkpt lat="27.182465" lon="103.330967"><ele>2893.1594</ele><time>2026-08-08T23:32:14.000Z</time></trkpt>
        <trkpt lat="27.182537" lon="103.330922"><ele>2893.8877</ele><time>2026-08-08T23:32:16.000Z</time></trkpt>
        <trkpt lat="27.182623" lon="103.330896"><ele>2894.756</ele><time>2026-08-08T23:32:18.000Z</time></trkpt>
        <trkpt lat="27.182703" lon="103.330874"><ele>2895.595</ele><time>2026-08-08T23:32:20.000Z</time></trkpt>
        <trkpt lat="27.18275" lon="103.330859"><ele>2895.8896</ele><time>2026-08-08T23:32:22.000Z</time></trkpt>
        <trkpt lat="27.182808" lon="103.330844"><ele>2896.2236</ele><time>2026-08-08T23:32:26.000Z</time></trkpt>
        <trkpt lat="27.182872" lon="103.33084"><ele>2905.8235</ele><time>2026-08-08T23:32:29.000Z</time></trkpt>
        <trkpt lat="27.182931" lon="103.330828"><ele>2896.8774</ele><time>2026-08-08T23:32:31.000Z</time></trkpt>
        <trkpt lat="27.182988" lon="103.330816"><ele>2897.1572</ele><time>2026-08-08T23:32:33.000Z</time></trkpt>
        <trkpt lat="27.183043" lon="103.330803"><ele>2897.346</ele><time>2026-08-08T23:32:35.000Z</time></trkpt>
        <trkpt lat="27.183094" lon="103.330785"><ele>2897.6245</ele><time>2026-08-08T23:32:37.000Z</time></trkpt>
        <trkpt lat="27.183149" lon="103.33076"><ele>2898.1987</ele><time>2026-08-08T23:32:39.000Z</time></trkpt>
        <trkpt lat="27.183201" lon="103.330747"><ele>2898.5864</ele><time>2026-08-08T23:32:41.000Z</time></trkpt>
        <trkpt lat="27.183246" lon="103.330737"><ele>2898.9768</ele><time>2026-08-08T23:32:43.000Z</time></trkpt>
        <trkpt lat="27.183295" lon="103.330737"><ele>2899.4504</ele><time>2026-08-08T23:32:45.000Z</time></trkpt>
        <trkpt lat="27.183359" lon="103.330738"><ele>2899.7327</ele><time>2026-08-08T23:32:48.000Z</time></trkpt>
        <trkpt lat="27.18342" lon="103.330717"><ele>2900.442</ele><time>2026-08-08T23:32:51.000Z</time></trkpt>
        <trkpt lat="27.183467" lon="103.330698"><ele>2901.2217</ele><time>2026-08-08T23:32:53.000Z</time></trkpt>
        <trkpt lat="27.183536" lon="103.330669"><ele>2901.4304</ele><time>2026-08-08T23:32:55.000Z</time></trkpt>
        <trkpt lat="27.183611" lon="103.330621"><ele>2902.123</ele><time>2026-08-08T23:32:57.000Z</time></trkpt>
        <trkpt lat="27.183684" lon="103.330574"><ele>2902.0503</ele><time>2026-08-08T23:32:59.000Z</time></trkpt>
        <trkpt lat="27.183742" lon="103.33051"><ele>2902.1868</ele><time>2026-08-08T23:33:01.000Z</time></trkpt>
        <trkpt lat="27.183781" lon="103.330468"><ele>2894.491</ele><time>2026-08-08T23:33:03.000Z</time></trkpt>
        <trkpt lat="27.183729" lon="103.330451"><ele>2905.8052</ele><time>2026-08-08T23:33:20.000Z</time></trkpt>
        <trkpt lat="27.183681" lon="103.330441"><ele>2907.064</ele><time>2026-08-08T23:33:27.000Z</time></trkpt>
        <trkpt lat="27.183656" lon="103.330489"><ele>2906.4082</ele><time>2026-08-08T23:33:33.000Z</time></trkpt>
        <trkpt lat="27.183608" lon="103.330494"><ele>2901.6284</ele><time>2026-08-08T23:34:47.000Z</time></trkpt>
        <trkpt lat="27.183558" lon="103.33048"><ele>2900.6604</ele><time>2026-08-08T23:34:54.000Z</time></trkpt>
        <trkpt lat="27.183511" lon="103.330491"><ele>2899.1382</ele><time>2026-08-08T23:35:09.000Z</time></trkpt>
        <trkpt lat="27.18346" lon="103.330494"><ele>2899.2732</ele><time>2026-08-08T23:35:18.000Z</time></trkpt>
        <trkpt lat="27.183413" lon="103.330517"><ele>2898.891</ele><time>2026-08-08T23:36:40.000Z</time></trkpt>
        <trkpt lat="27.183364" lon="103.330519"><ele>2898.5337</ele><time>2026-08-08T23:36:49.000Z</time></trkpt>
        <trkpt lat="27.183413" lon="103.330512"><ele>2901.1543</ele><time>2026-08-08T23:38:52.000Z</time></trkpt>
        <trkpt lat="27.183463" lon="103.33051"><ele>2901.4849</ele><time>2026-08-08T23:39:17.000Z</time></trkpt>
        <trkpt lat="27.183514" lon="103.330516"><ele>2899.44</ele><time>2026-08-08T23:39:22.000Z</time></trkpt>
        <trkpt lat="27.183559" lon="103.330501"><ele>2903.0176</ele><time>2026-08-08T23:39:32.000Z</time></trkpt>
        <trkpt lat="27.183604" lon="103.330514"><ele>2905.3247</ele><time>2026-08-08T23:39:50.000Z</time></trkpt>
        <trkpt lat="27.183659" lon="103.330514"><ele>2905.2712</ele><time>2026-08-08T23:39:55.000Z</time></trkpt>
        <trkpt lat="27.183626" lon="103.33048"><ele>2903.785</ele><time>2026-08-08T23:40:38.000Z</time></trkpt>
        <trkpt lat="27.183585" lon="103.330507"><ele>2906.4402</ele><time>2026-08-08T23:41:56.000Z</time></trkpt>
        <trkpt lat="27.183631" lon="103.330513"><ele>2908.4873</ele><time>2026-08-08T23:42:02.000Z</time></trkpt>
        <trkpt lat="27.183675" lon="103.330489"><ele>2907.4395</ele><time>2026-08-08T23:42:11.000Z</time></trkpt>
        <trkpt lat="27.183716" lon="103.330465"><ele>2907.146</ele><time>2026-08-08T23:42:22.000Z</time></trkpt>
        <trkpt lat="27.183762" lon="103.33047"><ele>2907.2234</ele><time>2026-08-08T23:42:48.000Z</time></trkpt>
        <trkpt lat="27.183716" lon="103.330446"><ele>2908.5679</ele><time>2026-08-08T23:42:59.000Z</time></trkpt>
        <trkpt lat="27.183748" lon="103.330388"><ele>2908.224</ele><time>2026-08-08T23:43:07.000Z</time></trkpt>
        <trkpt lat="27.183804" lon="103.330308"><ele>2908.1218</ele><time>2026-08-08T23:43:09.000Z</time></trkpt>
        <trkpt lat="27.183831" lon="103.330266"><ele>2907.4363</ele><time>2026-08-08T23:43:10.000Z</time></trkpt>
        <trkpt lat="27.183875" lon="103.330202"><ele>2910.3555</ele><time>2026-08-08T23:43:12.000Z</time></trkpt>
        <trkpt lat="27.183916" lon="103.330145"><ele>2910.4688</ele><time>2026-08-08T23:43:14.000Z</time></trkpt>
        <trkpt lat="27.18395" lon="103.330102"><ele>2911.48</ele><time>2026-08-08T23:43:16.000Z</time></trkpt>
        <trkpt lat="27.183994" lon="103.330044"><ele>2911.712</ele><time>2026-08-08T23:43:18.000Z</time></trkpt>
        <trkpt lat="27.184049" lon="103.32997"><ele>2912.1147</ele><time>2026-08-08T23:43:20.000Z</time></trkpt>
        <trkpt lat="27.184089" lon="103.329912"><ele>2912.8535</ele><time>2026-08-08T23:43:21.000Z</time></trkpt>
        <trkpt lat="27.184123" lon="103.329859"><ele>2913.0203</ele><time>2026-08-08T23:43:22.000Z</time></trkpt>
        <trkpt lat="27.184164" lon="103.329808"><ele>2913.3494</ele><time>2026-08-08T23:43:23.000Z</time></trkpt>
        <trkpt lat="27.184214" lon="103.329727"><ele>2914.6506</ele><time>2026-08-08T23:43:25.000Z</time></trkpt>
        <trkpt lat="27.184248" lon="103.329678"><ele>2914.83</ele><time>2026-08-08T23:43:26.000Z</time></trkpt>
        <trkpt lat="27.184279" lon="103.329642"><ele>2915.1143</ele><time>2026-08-08T23:43:27.000Z</time></trkpt>
        <trkpt lat="27.18433" lon="103.329559"><ele>2916.851</ele><time>2026-08-08T23:43:29.000Z</time></trkpt>
        <trkpt lat="27.184355" lon="103.329514"><ele>2917.092</ele><time>2026-08-08T23:43:30.000Z</time></trkpt>
        <trkpt lat="27.184401" lon="103.32946"><ele>2918.4678</ele><time>2026-08-08T23:43:32.000Z</time></trkpt>
        <trkpt lat="27.184428" lon="103.329417"><ele>2918.8875</ele><time>2026-08-08T23:43:33.000Z</time></trkpt>
        <trkpt lat="27.184465" lon="103.329365"><ele>2919.5327</ele><time>2026-08-08T23:43:34.000Z</time></trkpt>
        <trkpt lat="27.184499" lon="103.329316"><ele>2919.9324</ele><time>2026-08-08T23:43:35.000Z</time></trkpt>
        <trkpt lat="27.184527" lon="103.329272"><ele>2922.566</ele><time>2026-08-08T23:43:36.000Z</time></trkpt>
        <trkpt lat="27.184553" lon="103.329229"><ele>2922.0007</ele><time>2026-08-08T23:43:37.000Z</time></trkpt>
        <trkpt lat="27.184586" lon="103.329182"><ele>2923.4453</ele><time>2026-08-08T23:43:38.000Z</time></trkpt>
        <trkpt lat="27.184607" lon="103.329132"><ele>2924.606</ele><time>2026-08-08T23:43:39.000Z</time></trkpt>
        <trkpt lat="27.184637" lon="103.329044"><ele>2924.6853</ele><time>2026-08-08T23:43:41.000Z</time></trkpt>
        <trkpt lat="27.184674" lon="103.328974"><ele>2925.1394</ele><time>2026-08-08T23:43:43.000Z</time></trkpt>
        <trkpt lat="27.184713" lon="103.328913"><ele>2925.2322</ele><time>2026-08-08T23:43:45.000Z</time></trkpt>
        <trkpt lat="27.184776" lon="103.328844"><ele>2926.0862</ele><time>2026-08-08T23:43:47.000Z</time></trkpt>
        <trkpt lat="27.184814" lon="103.328812"><ele>2926.6885</ele><time>2026-08-08T23:43:48.000Z</time></trkpt>
        <trkpt lat="27.184851" lon="103.328764"><ele>2927.5308</ele><time>2026-08-08T23:43:49.000Z</time></trkpt>
        <trkpt lat="27.184932" lon="103.3287"><ele>2928.934</ele><time>2026-08-08T23:43:51.000Z</time></trkpt>
        <trkpt lat="27.184983" lon="103.328666"><ele>2930.0261</ele><time>2026-08-08T23:43:52.000Z</time></trkpt>
        <trkpt lat="27.185031" lon="103.328628"><ele>2930.626</ele><time>2026-08-08T23:43:53.000Z</time></trkpt>
        <trkpt lat="27.18507" lon="103.328581"><ele>2931.9722</ele><time>2026-08-08T23:43:54.000Z</time></trkpt>
        <trkpt lat="27.185091" lon="103.328531"><ele>2931.427</ele><time>2026-08-08T23:43:55.000Z</time></trkpt>
        <trkpt lat="27.185127" lon="103.328489"><ele>2932.1765</ele><time>2026-08-08T23:43:56.000Z</time></trkpt>
        <trkpt lat="27.18517" lon="103.32846"><ele>2932.0964</ele><time>2026-08-08T23:43:57.000Z</time></trkpt>
        <trkpt lat="27.185248" lon="103.328396"><ele>2933.1726</ele><time>2026-08-08T23:43:59.000Z</time></trkpt>
        <trkpt lat="27.185331" lon="103.328425"><ele>2933.7092</ele><time>2026-08-08T23:44:00.000Z</time></trkpt>
        <trkpt lat="27.185405" lon="103.328418"><ele>2933.9077</ele><time>2026-08-08T23:44:01.000Z</time></trkpt>
        <trkpt lat="27.185475" lon="103.328431"><ele>2934.6057</ele><time>2026-08-08T23:44:02.000Z</time></trkpt>
        <trkpt lat="27.185521" lon="103.328474"><ele>2935.1606</ele><time>2026-08-08T23:44:03.000Z</time></trkpt>
        <trkpt lat="27.185582" lon="103.328483"><ele>2935.2366</ele><time>2026-08-08T23:44:04.000Z</time></trkpt>
        <trkpt lat="27.185657" lon="103.328442"><ele>2936.8162</ele><time>2026-08-08T23:44:05.000Z</time></trkpt>
        <trkpt lat="27.185643" lon="103.328377"><ele>2936.8003</ele><time>2026-08-08T23:44:06.000Z</time></trkpt>
        <trkpt lat="27.185714" lon="103.328362"><ele>2937.231</ele><time>2026-08-08T23:44:07.000Z</time></trkpt>
        <trkpt lat="27.185791" lon="103.328312"><ele>2937.3762</ele><time>2026-08-08T23:44:07.000Z</time></trkpt>
        <trkpt lat="27.18586" lon="103.328279"><ele>2938.0535</ele><time>2026-08-08T23:44:08.000Z</time></trkpt>
        <trkpt lat="27.185934" lon="103.328273"><ele>2938.7585</ele><time>2026-08-08T23:44:09.000Z</time></trkpt>
        <trkpt lat="27.185963" lon="103.328219"><ele>2938.4966</ele><time>2026-08-08T23:44:10.000Z</time></trkpt>
        <trkpt lat="27.186062" lon="103.328176"><ele>2939.4673</ele><time>2026-08-08T23:44:11.000Z</time></trkpt>
        <trkpt lat="27.186093" lon="103.328104"><ele>2940.1277</ele><time>2026-08-08T23:44:12.000Z</time></trkpt>
        <trkpt lat="27.186166" lon="103.328065"><ele>2940.9329</ele><time>2026-08-08T23:44:13.000Z</time></trkpt>
        <trkpt lat="27.186217" lon="103.32799"><ele>2941.9111</ele><time>2026-08-08T23:44:14.000Z</time></trkpt>
        <trkpt lat="27.186203" lon="103.327919"><ele>2942.6968</ele><time>2026-08-08T23:44:15.000Z</time></trkpt>
        <trkpt lat="27.186242" lon="103.327835"><ele>2943.0186</ele><time>2026-08-08T23:44:16.000Z</time></trkpt>
        <trkpt lat="27.186282" lon="103.32777"><ele>2943.886</ele><time>2026-08-08T23:44:17.000Z</time></trkpt>
        <trkpt lat="27.18632" lon="103.327701"><ele>2943.8013</ele><time>2026-08-08T23:44:18.000Z</time></trkpt>
        <trkpt lat="27.186348" lon="103.327637"><ele>2944.442</ele><time>2026-08-08T23:44:19.000Z</time></trkpt>
        <trkpt lat="27.186392" lon="103.327575"><ele>2945.1484</ele><time>2026-08-08T23:44:20.000Z</time></trkpt>
        <trkpt lat="27.186448" lon="103.327534"><ele>2945.2712</ele><time>2026-08-08T23:44:21.000Z</time></trkpt>
        <trkpt lat="27.186485" lon="103.327453"><ele>2945.9004</ele><time>2026-08-08T23:44:22.000Z</time></trkpt>
        <trkpt lat="27.186525" lon="103.327383"><ele>2946.3992</ele><time>2026-08-08T23:44:23.000Z</time></trkpt>
        <trkpt lat="27.186563" lon="103.327333"><ele>2946.8748</ele><time>2026-08-08T23:44:24.000Z</time></trkpt>
        <trkpt lat="27.186606" lon="103.327294"><ele>2947.717</ele><time>2026-08-08T23:44:25.000Z</time></trkpt>
        <trkpt lat="27.186645" lon="103.327221"><ele>2948.4946</ele><time>2026-08-08T23:44:26.000Z</time></trkpt>
        <trkpt lat="27.186698" lon="103.327174"><ele>2949.3252</ele><time>2026-08-08T23:44:28.000Z</time></trkpt>
        <trkpt lat="27.186754" lon="103.32711"><ele>2950.5474</ele><time>2026-08-08T23:44:29.000Z</time></trkpt>
        <trkpt lat="27.186799" lon="103.327068"><ele>2951.1157</ele><time>2026-08-08T23:44:30.000Z</time></trkpt>
        <trkpt lat="27.186852" lon="103.327028"><ele>2951.573</ele><time>2026-08-08T23:44:31.000Z</time></trkpt>
        <trkpt lat="27.186904" lon="103.32698"><ele>2952.9827</ele><time>2026-08-08T23:44:32.000Z</time></trkpt>
        <trkpt lat="27.186964" lon="103.326947"><ele>2953.431</ele><time>2026-08-08T23:44:33.000Z</time></trkpt>
        <trkpt lat="27.187034" lon="103.326873"><ele>2954.755</ele><time>2026-08-08T23:44:35.000Z</time></trkpt>
        <trkpt lat="27.187063" lon="103.326821"><ele>2954.9312</ele><time>2026-08-08T23:44:36.000Z</time></trkpt>
        <trkpt lat="27.187103" lon="103.326796"><ele>2954.7878</ele><time>2026-08-08T23:44:41.000Z</time></trkpt>
        <trkpt lat="27.187068" lon="103.326835"><ele>2954.471</ele><time>2026-08-08T23:44:46.000Z</time></trkpt>
        <trkpt lat="27.187032" lon="103.326878"><ele>2953.5437</ele><time>2026-08-08T23:44:49.000Z</time></trkpt>
        <trkpt lat="27.186976" lon="103.326872"><ele>2952.871</ele><time>2026-08-08T23:44:59.000Z</time></trkpt>
        <trkpt lat="27.187029" lon="103.326836"><ele>2953.2097</ele><time>2026-08-08T23:45:02.000Z</time></trkpt>
        <trkpt lat="27.187082" lon="103.326804"><ele>2955.388</ele><time>2026-08-08T23:45:04.000Z</time></trkpt>
        <trkpt lat="27.187111" lon="103.326761"><ele>2955.625</ele><time>2026-08-08T23:45:05.000Z</time></trkpt>
        <trkpt lat="27.18713" lon="103.326714"><ele>2956.2812</ele><time>2026-08-08T23:45:06.000Z</time></trkpt>
        <trkpt lat="27.187147" lon="103.326663"><ele>2956.695</ele><time>2026-08-08T23:45:07.000Z</time></trkpt>
        <trkpt lat="27.187156" lon="103.326565"><ele>2956.9705</ele><time>2026-08-08T23:45:08.000Z</time></trkpt>
        <trkpt lat="27.187192" lon="103.326532"><ele>2957.9492</ele><time>2026-08-08T23:45:09.000Z</time></trkpt>
        <trkpt lat="27.187219" lon="103.326455"><ele>2957.9548</ele><time>2026-08-08T23:45:10.000Z</time></trkpt>
        <trkpt lat="27.187261" lon="103.326357"><ele>2956.09</ele><time>2026-08-08T23:45:11.000Z</time></trkpt>
        <trkpt lat="27.187274" lon="103.326293"><ele>2958.1165</ele><time>2026-08-08T23:45:12.000Z</time></trkpt>
        <trkpt lat="27.187245" lon="103.326202"><ele>2957.8323</ele><time>2026-08-08T23:45:13.000Z</time></trkpt>
        <trkpt lat="27.187264" lon="103.326118"><ele>2958.0288</ele><time>2026-08-08T23:45:14.000Z</time></trkpt>
        <trkpt lat="27.18729" lon="103.326064"><ele>2954.8086</ele><time>2026-08-08T23:45:15.000Z</time></trkpt>
        <trkpt lat="27.187313" lon="103.326012"><ele>2958.4724</ele><time>2026-08-08T23:45:16.000Z</time></trkpt>
        <trkpt lat="27.187333" lon="103.325944"><ele>2957.3896</ele><time>2026-08-08T23:45:17.000Z</time></trkpt>
        <trkpt lat="27.187323" lon="103.325882"><ele>2956.7842</ele><time>2026-08-08T23:45:20.000Z</time></trkpt>
        <trkpt lat="27.187315" lon="103.325827"><ele>2956.9626</ele><time>2026-08-08T23:45:23.000Z</time></trkpt>
        <trkpt lat="27.187341" lon="103.325765"><ele>2956.8997</ele><time>2026-08-08T23:45:27.000Z</time></trkpt>
        <trkpt lat="27.187361" lon="103.325719"><ele>2958.1204</ele><time>2026-08-08T23:45:31.000Z</time></trkpt>
        <trkpt lat="27.187391" lon="103.32568"><ele>2957.4004</ele><time>2026-08-08T23:45:54.000Z</time></trkpt>
        <trkpt lat="27.187412" lon="103.325631"><ele>2958.5527</ele><time>2026-08-08T23:45:59.000Z</time></trkpt>
        <trkpt lat="27.18738" lon="103.325667"><ele>2958.0767</ele><time>2026-08-08T23:46:42.000Z</time></trkpt>
        <trkpt lat="27.187416" lon="103.325704"><ele>2958.0732</ele><time>2026-08-08T23:46:54.000Z</time></trkpt>
        <trkpt lat="27.187447" lon="103.325666"><ele>2958.5303</ele><time>2026-08-08T23:47:01.000Z</time></trkpt>
        <trkpt lat="27.187438" lon="103.325613"><ele>2958.9746</ele><time>2026-08-08T23:47:06.000Z</time></trkpt>
        <trkpt lat="27.187439" lon="103.325558"><ele>2959.017</ele><time>2026-08-08T23:47:09.000Z</time></trkpt>
        <trkpt lat="27.187446" lon="103.325492"><ele>2959.0237</ele><time>2026-08-08T23:47:11.000Z</time></trkpt>
        <trkpt lat="27.187457" lon="103.325438"><ele>2958.7456</ele><time>2026-08-08T23:47:12.000Z</time></trkpt>
        <trkpt lat="27.187474" lon="103.32538"><ele>2958.837</ele><time>2026-08-08T23:47:13.000Z</time></trkpt>
        <trkpt lat="27.187494" lon="103.325329"><ele>2958.962</ele><time>2026-08-08T23:47:14.000Z</time></trkpt>
        <trkpt lat="27.187513" lon="103.325281"><ele>2958.7751</ele><time>2026-08-08T23:47:15.000Z</time></trkpt>
        <trkpt lat="27.187531" lon="103.32523"><ele>2958.7205</ele><time>2026-08-08T23:47:16.000Z</time></trkpt>
        <trkpt lat="27.187549" lon="103.325183"><ele>2958.6992</ele><time>2026-08-08T23:47:17.000Z</time></trkpt>
        <trkpt lat="27.187565" lon="103.325135"><ele>2958.4595</ele><time>2026-08-08T23:47:18.000Z</time></trkpt>
        <trkpt lat="27.187597" lon="103.325046"><ele>2958.3396</ele><time>2026-08-08T23:47:19.000Z</time></trkpt>
        <trkpt lat="27.187593" lon="103.324926"><ele>2958.376</ele><time>2026-08-08T23:47:20.000Z</time></trkpt>
        <trkpt lat="27.18751" lon="103.324714"><ele>2958.151</ele><time>2026-08-08T23:47:21.000Z</time></trkpt>
        <trkpt lat="27.187523" lon="103.324657"><ele>2958.1572</ele><time>2026-08-08T23:47:22.000Z</time></trkpt>
        <trkpt lat="27.187492" lon="103.324561"><ele>2958.0212</ele><time>2026-08-08T23:47:23.000Z</time></trkpt>
        <trkpt lat="27.187552" lon="103.324505"><ele>2957.9053</ele><time>2026-08-08T23:47:24.000Z</time></trkpt>
        <trkpt lat="27.187623" lon="103.324509"><ele>2957.5483</ele><time>2026-08-08T23:47:25.000Z</time></trkpt>
        <trkpt lat="27.187684" lon="103.324535"><ele>2957.7046</ele><time>2026-08-08T23:47:26.000Z</time></trkpt>
        <trkpt lat="27.187787" lon="103.324607"><ele>2957.5142</ele><time>2026-08-08T23:47:27.000Z</time></trkpt>
        <trkpt lat="27.187832" lon="103.324587"><ele>2957.7725</ele><time>2026-08-08T23:47:28.000Z</time></trkpt>
        <trkpt lat="27.187882" lon="103.324551"><ele>2958.0786</ele><time>2026-08-08T23:47:29.000Z</time></trkpt>
        <trkpt lat="27.187934" lon="103.324513"><ele>2959.0244</ele><time>2026-08-08T23:47:30.000Z</time></trkpt>
        <trkpt lat="27.187992" lon="103.32444"><ele>2959.9878</ele><time>2026-08-08T23:47:32.000Z</time></trkpt>
        <trkpt lat="27.188043" lon="103.324386"><ele>2960.3943</ele><time>2026-08-08T23:47:34.000Z</time></trkpt>
        <trkpt lat="27.188074" lon="103.32434"><ele>2960.4873</ele><time>2026-08-08T23:47:36.000Z</time></trkpt>
        <trkpt lat="27.1881" lon="103.324277"><ele>2960.7239</ele><time>2026-08-08T23:47:42.000Z</time></trkpt>
        <trkpt lat="27.188159" lon="103.324205"><ele>2961.4922</ele><time>2026-08-08T23:47:44.000Z</time></trkpt>
        <trkpt lat="27.18821" lon="103.324124"><ele>2961.3704</ele><time>2026-08-08T23:47:46.000Z</time></trkpt>
        <trkpt lat="27.188227" lon="103.32404"><ele>2961.3406</ele><time>2026-08-08T23:47:47.000Z</time></trkpt>
        <trkpt lat="27.18827" lon="103.323981"><ele>2960.7698</ele><time>2026-08-08T23:47:48.000Z</time></trkpt>
        <trkpt lat="27.188281" lon="103.32392"><ele>2959.8147</ele><time>2026-08-08T23:47:49.000Z</time></trkpt>
        <trkpt lat="27.188309" lon="103.323859"><ele>2959.3518</ele><time>2026-08-08T23:47:50.000Z</time></trkpt>
        <trkpt lat="27.18835" lon="103.323804"><ele>2959.4216</ele><time>2026-08-08T23:47:51.000Z</time></trkpt>
        <trkpt lat="27.188388" lon="103.323757"><ele>2959.6968</ele><time>2026-08-08T23:47:52.000Z</time></trkpt>
        <trkpt lat="27.188425" lon="103.323704"><ele>2959.618</ele><time>2026-08-08T23:47:53.000Z</time></trkpt>
        <trkpt lat="27.188455" lon="103.323645"><ele>2959.2952</ele><time>2026-08-08T23:47:54.000Z</time></trkpt>
        <trkpt lat="27.188504" lon="103.323571"><ele>2959.526</ele><time>2026-08-08T23:47:55.000Z</time></trkpt>
        <trkpt lat="27.188545" lon="103.323483"><ele>2959.492</ele><time>2026-08-08T23:47:56.000Z</time></trkpt>
        <trkpt lat="27.188567" lon="103.323415"><ele>2959.9365</ele><time>2026-08-08T23:47:57.000Z</time></trkpt>
        <trkpt lat="27.188595" lon="103.323356"><ele>2960.197</ele><time>2026-08-08T23:47:58.000Z</time></trkpt>
        <trkpt lat="27.188642" lon="103.323276"><ele>2960.5503</ele><time>2026-08-08T23:47:59.000Z</time></trkpt>
        <trkpt lat="27.188667" lon="103.323214"><ele>2960.7961</ele><time>2026-08-08T23:48:00.000Z</time></trkpt>
        <trkpt lat="27.188714" lon="103.323135"><ele>2960.9749</ele><time>2026-08-08T23:48:01.000Z</time></trkpt>
        <trkpt lat="27.188767" lon="103.323077"><ele>2961.392</ele><time>2026-08-08T23:48:02.000Z</time></trkpt>
        <trkpt lat="27.188801" lon="103.323012"><ele>2962.0347</ele><time>2026-08-08T23:48:03.000Z</time></trkpt>
        <trkpt lat="27.188872" lon="103.322955"><ele>2962.6555</ele><time>2026-08-08T23:48:04.000Z</time></trkpt>
        <trkpt lat="27.188924" lon="103.322906"><ele>2963.8364</ele><time>2026-08-08T23:48:05.000Z</time></trkpt>
        <trkpt lat="27.188971" lon="103.322845"><ele>2963.534</ele><time>2026-08-08T23:48:06.000Z</time></trkpt>
        <trkpt lat="27.189033" lon="103.322773"><ele>2963.2988</ele><time>2026-08-08T23:48:07.000Z</time></trkpt>
        <trkpt lat="27.189071" lon="103.322728"><ele>2969.1724</ele><time>2026-08-08T23:48:08.000Z</time></trkpt>
        <trkpt lat="27.189129" lon="103.322668"><ele>2965.0796</ele><time>2026-08-08T23:48:09.000Z</time></trkpt>
        <trkpt lat="27.189198" lon="103.322608"><ele>2963.821</ele><time>2026-08-08T23:48:10.000Z</time></trkpt>
        <trkpt lat="27.189258" lon="103.322562"><ele>2967.0852</ele><time>2026-08-08T23:48:11.000Z</time></trkpt>
        <trkpt lat="27.189316" lon="103.322518"><ele>2964.5637</ele><time>2026-08-08T23:48:12.000Z</time></trkpt>
        <trkpt lat="27.189392" lon="103.322499"><ele>2964.409</ele><time>2026-08-08T23:48:13.000Z</time></trkpt>
        <trkpt lat="27.189467" lon="103.322496"><ele>2963.7</ele><time>2026-08-08T23:48:14.000Z</time></trkpt>
        <trkpt lat="27.189542" lon="103.322519"><ele>2965.5596</ele><time>2026-08-08T23:48:15.000Z</time></trkpt>
        <trkpt lat="27.189613" lon="103.322532"><ele>2964.2246</ele><time>2026-08-08T23:48:16.000Z</time></trkpt>
        <trkpt lat="27.189664" lon="103.322574"><ele>2963.9868</ele><time>2026-08-08T23:48:17.000Z</time></trkpt>
        <trkpt lat="27.189695" lon="103.322624"><ele>2966.4814</ele><time>2026-08-08T23:48:18.000Z</time></trkpt>
        <trkpt lat="27.189735" lon="103.322675"><ele>2944.3276</ele><time>2026-08-08T23:48:19.000Z</time></trkpt>
        <trkpt lat="27.189775" lon="103.32271"><ele>2946.32</ele><time>2026-08-08T23:48:20.000Z</time></trkpt>
        <trkpt lat="27.189804" lon="103.322759"><ele>2946.796</ele><time>2026-08-08T23:48:21.000Z</time></trkpt>
        <trkpt lat="27.189857" lon="103.322799"><ele>2948.4119</ele><time>2026-08-08T23:48:27.000Z</time></trkpt>
        <trkpt lat="27.189897" lon="103.32283"><ele>2949.4863</ele><time>2026-08-08T23:48:30.000Z</time></trkpt>
        <trkpt lat="27.18985" lon="103.32281"><ele>2962.6897</ele><time>2026-08-08T23:48:50.000Z</time></trkpt>
        <trkpt lat="27.189823" lon="103.322762"><ele>2962.1062</ele><time>2026-08-08T23:48:53.000Z</time></trkpt>
        <trkpt lat="27.189791" lon="103.322694"><ele>2963.6548</ele><time>2026-08-08T23:48:59.000Z</time></trkpt>
        <trkpt lat="27.18975" lon="103.322621"><ele>2964.2275</ele><time>2026-08-08T23:49:01.000Z</time></trkpt>
        <trkpt lat="27.189721" lon="103.322579"><ele>2964.1035</ele><time>2026-08-08T23:49:02.000Z</time></trkpt>
        <trkpt lat="27.189673" lon="103.322521"><ele>2964.6797</ele><time>2026-08-08T23:49:03.000Z</time></trkpt>
        <trkpt lat="27.189604" lon="103.322494"><ele>2964.4133</ele><time>2026-08-08T23:49:05.000Z</time></trkpt>
        <trkpt lat="27.189551" lon="103.322487"><ele>2964.1565</ele><time>2026-08-08T23:49:06.000Z</time></trkpt>
        <trkpt lat="27.189456" lon="103.322518"><ele>2964.332</ele><time>2026-08-08T23:49:08.000Z</time></trkpt>
        <trkpt lat="27.189409" lon="103.322539"><ele>2964.332</ele><time>2026-08-08T23:49:09.000Z</time></trkpt>
        <trkpt lat="27.189353" lon="103.322549"><ele>2964.3618</ele><time>2026-08-08T23:49:10.000Z</time></trkpt>
        <trkpt lat="27.189309" lon="103.32257"><ele>2964.2588</ele><time>2026-08-08T23:49:11.000Z</time></trkpt>
        <trkpt lat="27.189234" lon="103.322641"><ele>2962.671</ele><time>2026-08-08T23:49:13.000Z</time></trkpt>
        <trkpt lat="27.189178" lon="103.322668"><ele>2963.8413</ele><time>2026-08-08T23:49:14.000Z</time></trkpt>
        <trkpt lat="27.189128" lon="103.322705"><ele>2963.1157</ele><time>2026-08-08T23:49:15.000Z</time></trkpt>
        <trkpt lat="27.189098" lon="103.322747"><ele>2963.8474</ele><time>2026-08-08T23:49:16.000Z</time></trkpt>
        <trkpt lat="27.189049" lon="103.322781"><ele>2963.3533</ele><time>2026-08-08T23:49:17.000Z</time></trkpt>
        <trkpt lat="27.188993" lon="103.322806"><ele>2954.8538</ele><time>2026-08-08T23:49:18.000Z</time></trkpt>
        <trkpt lat="27.188952" lon="103.322864"><ele>2962.189</ele><time>2026-08-08T23:49:19.000Z</time></trkpt>
        <trkpt lat="27.188912" lon="103.322899"><ele>2962.652</ele><time>2026-08-08T23:49:20.000Z</time></trkpt>
        <trkpt lat="27.188866" lon="103.322954"><ele>2962.3567</ele><time>2026-08-08T23:49:21.000Z</time></trkpt>
        <trkpt lat="27.188829" lon="103.322996"><ele>2962.2756</ele><time>2026-08-08T23:49:22.000Z</time></trkpt>
        <trkpt lat="27.188785" lon="103.323048"><ele>2961.6904</ele><time>2026-08-08T23:49:23.000Z</time></trkpt>
        <trkpt lat="27.188726" lon="103.323099"><ele>2961.2778</ele><time>2026-08-08T23:49:24.000Z</time></trkpt>
        <trkpt lat="27.188692" lon="103.323192"><ele>2960.3203</ele><time>2026-08-08T23:49:26.000Z</time></trkpt>
        <trkpt lat="27.18866" lon="103.323257"><ele>2960.384</ele><time>2026-08-08T23:49:27.000Z</time></trkpt>
        <trkpt lat="27.188631" lon="103.323365"><ele>2959.566</ele><time>2026-08-08T23:49:29.000Z</time></trkpt>
        <trkpt lat="27.188598" lon="103.323419"><ele>2959.176</ele><time>2026-08-08T23:49:33.000Z</time></trkpt>
        <trkpt lat="27.188556" lon="103.32346"><ele>2958.927</ele><time>2026-08-08T23:49:44.000Z</time></trkpt>
        <trkpt lat="27.188527" lon="103.323565"><ele>2959.1052</ele><time>2026-08-08T23:49:46.000Z</time></trkpt>
        <trkpt lat="27.18851" lon="103.323617"><ele>2959.296</ele><time>2026-08-08T23:49:47.000Z</time></trkpt>
        <trkpt lat="27.18849" lon="103.323669"><ele>2959.338</ele><time>2026-08-08T23:49:48.000Z</time></trkpt>
        <trkpt lat="27.188465" lon="103.323714"><ele>2959.0295</ele><time>2026-08-08T23:49:49.000Z</time></trkpt>
        <trkpt lat="27.18846" lon="103.323768"><ele>2958.8416</ele><time>2026-08-08T23:49:50.000Z</time></trkpt>
        <trkpt lat="27.188423" lon="103.323831"><ele>2959.408</ele><time>2026-08-08T23:49:51.000Z</time></trkpt>
        <trkpt lat="27.18838" lon="103.323892"><ele>2959.4448</ele><time>2026-08-08T23:49:53.000Z</time></trkpt>
        <trkpt lat="27.188342" lon="103.323956"><ele>2959.7595</ele><time>2026-08-08T23:49:54.000Z</time></trkpt>
        <trkpt lat="27.188323" lon="103.324041"><ele>2960.1716</ele><time>2026-08-08T23:49:55.000Z</time></trkpt>
        <trkpt lat="27.188318" lon="103.324114"><ele>2960.6133</ele><time>2026-08-08T23:49:56.000Z</time></trkpt>
        <trkpt lat="27.188287" lon="103.32417"><ele>2960.9153</ele><time>2026-08-08T23:49:57.000Z</time></trkpt>
        <trkpt lat="27.188242" lon="103.324226"><ele>2961.1665</ele><time>2026-08-08T23:49:59.000Z</time></trkpt>
        <trkpt lat="27.188206" lon="103.324268"><ele>2961.3508</ele><time>2026-08-08T23:50:00.000Z</time></trkpt>
        <trkpt lat="27.188161" lon="103.324292"><ele>2961.3584</ele><time>2026-08-08T23:50:01.000Z</time></trkpt>
        <trkpt lat="27.188085" lon="103.324366"><ele>2960.177</ele><time>2026-08-08T23:50:03.000Z</time></trkpt>
        <trkpt lat="27.188063" lon="103.324421"><ele>2959.7632</ele><time>2026-08-08T23:50:06.000Z</time></trkpt>
        <trkpt lat="27.187969" lon="103.324505"><ele>2959.7603</ele><time>2026-08-08T23:50:22.000Z</time></trkpt>
        <trkpt lat="27.187923" lon="103.324544"><ele>2958.8003</ele><time>2026-08-08T23:50:23.000Z</time></trkpt>
        <trkpt lat="27.187872" lon="103.324592"><ele>2959.6575</ele><time>2026-08-08T23:50:24.000Z</time></trkpt>
        <trkpt lat="27.187824" lon="103.324665"><ele>2958.3257</ele><time>2026-08-08T23:50:25.000Z</time></trkpt>
        <trkpt lat="27.187766" lon="103.324723"><ele>2958.2126</ele><time>2026-08-08T23:50:26.000Z</time></trkpt>
        <trkpt lat="27.187735" lon="103.324802"><ele>2958.6619</ele><time>2026-08-08T23:50:27.000Z</time></trkpt>
        <trkpt lat="27.187689" lon="103.324869"><ele>2958.8208</ele><time>2026-08-08T23:50:28.000Z</time></trkpt>
        <trkpt lat="27.187652" lon="103.32493"><ele>2959.2495</ele><time>2026-08-08T23:50:29.000Z</time></trkpt>
        <trkpt lat="27.187614" lon="103.324997"><ele>2959.162</ele><time>2026-08-08T23:50:30.000Z</time></trkpt>
        <trkpt lat="27.187581" lon="103.325051"><ele>2959.3677</ele><time>2026-08-08T23:50:31.000Z</time></trkpt>
        <trkpt lat="27.187549" lon="103.325109"><ele>2959.4407</ele><time>2026-08-08T23:50:32.000Z</time></trkpt>
        <trkpt lat="27.18752" lon="103.32516"><ele>2959.448</ele><time>2026-08-08T23:50:33.000Z</time></trkpt>
        <trkpt lat="27.187498" lon="103.325229"><ele>2959.526</ele><time>2026-08-08T23:50:34.000Z</time></trkpt>
        <trkpt lat="27.187468" lon="103.325288"><ele>2956.1516</ele><time>2026-08-08T23:50:35.000Z</time></trkpt>
        <trkpt lat="27.187452" lon="103.325351"><ele>2956.284</ele><time>2026-08-08T23:50:36.000Z</time></trkpt>
        <trkpt lat="27.187431" lon="103.325423"><ele>2955.6655</ele><time>2026-08-08T23:50:37.000Z</time></trkpt>
        <trkpt lat="27.187415" lon="103.32548"><ele>2955.383</ele><time>2026-08-08T23:50:38.000Z</time></trkpt>
        <trkpt lat="27.187381" lon="103.325526"><ele>2955.2498</ele><time>2026-08-08T23:50:39.000Z</time></trkpt>
        <trkpt lat="27.187374" lon="103.325584"><ele>2955.177</ele><time>2026-08-08T23:50:40.000Z</time></trkpt>
        <trkpt lat="27.187349" lon="103.325648"><ele>2954.847</ele><time>2026-08-08T23:50:41.000Z</time></trkpt>
        <trkpt lat="27.187321" lon="103.32575"><ele>2954.3682</ele><time>2026-08-08T23:50:43.000Z</time></trkpt>
        <trkpt lat="27.187309" lon="103.325799"><ele>2954.128</ele><time>2026-08-08T23:50:44.000Z</time></trkpt>
        <trkpt lat="27.187297" lon="103.32586"><ele>2954.337</ele><time>2026-08-08T23:50:45.000Z</time></trkpt>
        <trkpt lat="27.187299" lon="103.325934"><ele>2954.7896</ele><time>2026-08-08T23:50:46.000Z</time></trkpt>
        <trkpt lat="27.187306" lon="103.326007"><ele>2954.515</ele><time>2026-08-08T23:50:47.000Z</time></trkpt>
        <trkpt lat="27.187292" lon="103.326066"><ele>2954.4114</ele><time>2026-08-08T23:50:48.000Z</time></trkpt>
        <trkpt lat="27.18729" lon="103.326121"><ele>2954.2593</ele><time>2026-08-08T23:50:49.000Z</time></trkpt>
        <trkpt lat="27.1873" lon="103.32618"><ele>2954.5715</ele><time>2026-08-08T23:50:50.000Z</time></trkpt>
        <trkpt lat="27.187286" lon="103.326244"><ele>2953.9612</ele><time>2026-08-08T23:50:51.000Z</time></trkpt>
        <trkpt lat="27.187275" lon="103.326302"><ele>2953.1118</ele><time>2026-08-08T23:50:52.000Z</time></trkpt>
        <trkpt lat="27.187257" lon="103.326364"><ele>2952.7131</ele><time>2026-08-08T23:50:53.000Z</time></trkpt>
        <trkpt lat="27.187227" lon="103.326414"><ele>2952.8843</ele><time>2026-08-08T23:50:54.000Z</time></trkpt>
        <trkpt lat="27.1872" lon="103.326477"><ele>2957.597</ele><time>2026-08-08T23:50:55.000Z</time></trkpt>
        <trkpt lat="27.187177" lon="103.326545"><ele>2957.1936</ele><time>2026-08-08T23:50:56.000Z</time></trkpt>
        <trkpt lat="27.187161" lon="103.326611"><ele>2957.7727</ele><time>2026-08-08T23:50:57.000Z</time></trkpt>
        <trkpt lat="27.187141" lon="103.326671"><ele>2956.5156</ele><time>2026-08-08T23:50:58.000Z</time></trkpt>
        <trkpt lat="27.187126" lon="103.326726"><ele>2957.0918</ele><time>2026-08-08T23:50:59.000Z</time></trkpt>
        <trkpt lat="27.187092" lon="103.32677"><ele>2955.4443</ele><time>2026-08-08T23:51:00.000Z</time></trkpt>
        <trkpt lat="27.187057" lon="103.326823"><ele>2954.644</ele><time>2026-08-08T23:51:01.000Z</time></trkpt>
        <trkpt lat="27.187011" lon="103.326861"><ele>2954.5024</ele><time>2026-08-08T23:51:02.000Z</time></trkpt>
        <trkpt lat="27.18697" lon="103.326906"><ele>2954.4375</ele><time>2026-08-08T23:51:03.000Z</time></trkpt>
        <trkpt lat="27.186928" lon="103.32695"><ele>2953.8994</ele><time>2026-08-08T23:51:04.000Z</time></trkpt>
        <trkpt lat="27.186887" lon="103.327006"><ele>2952.2366</ele><time>2026-08-08T23:51:05.000Z</time></trkpt>
        <trkpt lat="27.186834" lon="103.327063"><ele>2951.7146</ele><time>2026-08-08T23:51:06.000Z</time></trkpt>
        <trkpt lat="27.186798" lon="103.32713"><ele>2949.9404</ele><time>2026-08-08T23:51:07.000Z</time></trkpt>
        <trkpt lat="27.186755" lon="103.327172"><ele>2951.2583</ele><time>2026-08-08T23:51:08.000Z</time></trkpt>
        <trkpt lat="27.186723" lon="103.327224"><ele>2949.544</ele><time>2026-08-08T23:51:09.000Z</time></trkpt>
        <trkpt lat="27.186681" lon="103.327271"><ele>2949.1265</ele><time>2026-08-08T23:51:10.000Z</time></trkpt>
        <trkpt lat="27.186663" lon="103.327344"><ele>2947.9673</ele><time>2026-08-08T23:51:11.000Z</time></trkpt>
        <trkpt lat="27.186637" lon="103.3274"><ele>2947.5742</ele><time>2026-08-08T23:51:12.000Z</time></trkpt>
        <trkpt lat="27.186591" lon="103.327451"><ele>2946.0366</ele><time>2026-08-08T23:51:13.000Z</time></trkpt>
        <trkpt lat="27.186549" lon="103.327493"><ele>2947.571</ele><time>2026-08-08T23:51:14.000Z</time></trkpt>
        <trkpt lat="27.186501" lon="103.32755"><ele>2946.3716</ele><time>2026-08-08T23:51:15.000Z</time></trkpt>
        <trkpt lat="27.186469" lon="103.327625"><ele>2944.8772</ele><time>2026-08-08T23:51:16.000Z</time></trkpt>
        <trkpt lat="27.186429" lon="103.327682"><ele>2945.0784</ele><time>2026-08-08T23:51:17.000Z</time></trkpt>
        <trkpt lat="27.186392" lon="103.327737"><ele>2943.9524</ele><time>2026-08-08T23:51:18.000Z</time></trkpt>
        <trkpt lat="27.186367" lon="103.327798"><ele>2943.1216</ele><time>2026-08-08T23:51:19.000Z</time></trkpt>
        <trkpt lat="27.186338" lon="103.327871"><ele>2942.6365</ele><time>2026-08-08T23:51:20.000Z</time></trkpt>
        <trkpt lat="27.186293" lon="103.327928"><ele>2943.5137</ele><time>2026-08-08T23:51:21.000Z</time></trkpt>
        <trkpt lat="27.186253" lon="103.327992"><ele>2941.7239</ele><time>2026-08-08T23:51:22.000Z</time></trkpt>
        <trkpt lat="27.186191" lon="103.328034"><ele>2940.0957</ele><time>2026-08-08T23:51:23.000Z</time></trkpt>
        <trkpt lat="27.186129" lon="103.328063"><ele>2939.7588</ele><time>2026-08-08T23:51:24.000Z</time></trkpt>
        <trkpt lat="27.18605" lon="103.328096"><ele>2939.1445</ele><time>2026-08-08T23:51:25.000Z</time></trkpt>
        <trkpt lat="27.185977" lon="103.328133"><ele>2938.2402</ele><time>2026-08-08T23:51:26.000Z</time></trkpt>
        <trkpt lat="27.185903" lon="103.32817"><ele>2939.5696</ele><time>2026-08-08T23:51:27.000Z</time></trkpt>
        <trkpt lat="27.185839" lon="103.328224"><ele>2938.2207</ele><time>2026-08-08T23:51:28.000Z</time></trkpt>
        <trkpt lat="27.185771" lon="103.328275"><ele>2939.4648</ele><time>2026-08-08T23:51:29.000Z</time></trkpt>
        <trkpt lat="27.185703" lon="103.328312"><ele>2937.309</ele><time>2026-08-08T23:51:30.000Z</time></trkpt>
        <trkpt lat="27.185637" lon="103.328358"><ele>2938.4258</ele><time>2026-08-08T23:51:31.000Z</time></trkpt>
        <trkpt lat="27.185569" lon="103.328389"><ele>2936.8696</ele><time>2026-08-08T23:51:32.000Z</time></trkpt>
        <trkpt lat="27.185504" lon="103.328412"><ele>2937.3416</ele><time>2026-08-08T23:51:33.000Z</time></trkpt>
        <trkpt lat="27.185433" lon="103.328429"><ele>2936.1768</ele><time>2026-08-08T23:51:34.000Z</time></trkpt>
        <trkpt lat="27.185369" lon="103.328448"><ele>2934.3467</ele><time>2026-08-08T23:51:35.000Z</time></trkpt>
        <trkpt lat="27.185306" lon="103.328456"><ele>2935.381</ele><time>2026-08-08T23:51:36.000Z</time></trkpt>
        <trkpt lat="27.185255" lon="103.328465"><ele>2934.0125</ele><time>2026-08-08T23:51:37.000Z</time></trkpt>
        <trkpt lat="27.185198" lon="103.328473"><ele>2933.1587</ele><time>2026-08-08T23:51:38.000Z</time></trkpt>
        <trkpt lat="27.185144" lon="103.328488"><ele>2932.249</ele><time>2026-08-08T23:51:39.000Z</time></trkpt>
        <trkpt lat="27.18509" lon="103.328518"><ele>2932.807</ele><time>2026-08-08T23:51:40.000Z</time></trkpt>
        <trkpt lat="27.185046" lon="103.328572"><ele>2931.383</ele><time>2026-08-08T23:51:41.000Z</time></trkpt>
        <trkpt lat="27.184996" lon="103.328623"><ele>2931.414</ele><time>2026-08-08T23:51:42.000Z</time></trkpt>
        <trkpt lat="27.184946" lon="103.328676"><ele>2932.6956</ele><time>2026-08-08T23:51:43.000Z</time></trkpt>
        <trkpt lat="27.184896" lon="103.328708"><ele>2930.164</ele><time>2026-08-08T23:51:44.000Z</time></trkpt>
        <trkpt lat="27.184851" lon="103.328749"><ele>2929.7683</ele><time>2026-08-08T23:51:45.000Z</time></trkpt>
        <trkpt lat="27.184802" lon="103.328793"><ele>2928.961</ele><time>2026-08-08T23:51:46.000Z</time></trkpt>
        <trkpt lat="27.184754" lon="103.328816"><ele>2928.9016</ele><time>2026-08-08T23:51:47.000Z</time></trkpt>
        <trkpt lat="27.184704" lon="103.328841"><ele>2926.065</ele><time>2026-08-08T23:51:48.000Z</time></trkpt>
        <trkpt lat="27.184656" lon="103.328907"><ele>2926.6125</ele><time>2026-08-08T23:51:50.000Z</time></trkpt>
        <trkpt lat="27.184601" lon="103.328983"><ele>2926.0232</ele><time>2026-08-08T23:51:52.000Z</time></trkpt>
        <trkpt lat="27.184542" lon="103.32906"><ele>2926.0186</ele><time>2026-08-08T23:51:54.000Z</time></trkpt>
        <trkpt lat="27.184502" lon="103.329112"><ele>2925.7122</ele><time>2026-08-08T23:51:55.000Z</time></trkpt>
        <trkpt lat="27.184455" lon="103.329172"><ele>2925.2712</ele><time>2026-08-08T23:51:56.000Z</time></trkpt>
        <trkpt lat="27.184411" lon="103.329229"><ele>2922.838</ele><time>2026-08-08T23:51:57.000Z</time></trkpt>
        <trkpt lat="27.184376" lon="103.329281"><ele>2922.5898</ele><time>2026-08-08T23:51:58.000Z</time></trkpt>
        <trkpt lat="27.184346" lon="103.329325"><ele>2920.8591</ele><time>2026-08-08T23:51:59.000Z</time></trkpt>
        <trkpt lat="27.184303" lon="103.329389"><ele>2920.4336</ele><time>2026-08-08T23:52:00.000Z</time></trkpt>
        <trkpt lat="27.184266" lon="103.329447"><ele>2920.022</ele><time>2026-08-08T23:52:01.000Z</time></trkpt>
        <trkpt lat="27.184234" lon="103.329498"><ele>2918.8804</ele><time>2026-08-08T23:52:02.000Z</time></trkpt>
        <trkpt lat="27.184202" lon="103.329549"><ele>2917.328</ele><time>2026-08-08T23:52:03.000Z</time></trkpt>
        <trkpt lat="27.184169" lon="103.3296"><ele>2917.2166</ele><time>2026-08-08T23:52:04.000Z</time></trkpt>
        <trkpt lat="27.184129" lon="103.329661"><ele>2917.045</ele><time>2026-08-08T23:52:05.000Z</time></trkpt>
        <trkpt lat="27.184093" lon="103.329714"><ele>2915.8223</ele><time>2026-08-08T23:52:06.000Z</time></trkpt>
        <trkpt lat="27.184038" lon="103.329796"><ele>2914.7786</ele><time>2026-08-08T23:52:08.000Z</time></trkpt>
        <trkpt lat="27.184004" lon="103.329843"><ele>2914.6438</ele><time>2026-08-08T23:52:09.000Z</time></trkpt>
        <trkpt lat="27.183964" lon="103.3299"><ele>2914.4565</ele><time>2026-08-08T23:52:10.000Z</time></trkpt>
        <trkpt lat="27.183932" lon="103.329945"><ele>2913.2234</ele><time>2026-08-08T23:52:11.000Z</time></trkpt>
        <trkpt lat="27.183885" lon="103.330011"><ele>2912.5464</ele><time>2026-08-08T23:52:13.000Z</time></trkpt>
        <trkpt lat="27.183848" lon="103.330063"><ele>2912.1758</ele><time>2026-08-08T23:52:15.000Z</time></trkpt>
        <trkpt lat="27.18382" lon="103.330103"><ele>2911.2507</ele><time>2026-08-08T23:52:16.000Z</time></trkpt>
        <trkpt lat="27.183786" lon="103.33015"><ele>2911.1646</ele><time>2026-08-08T23:52:18.000Z</time></trkpt>
        <trkpt lat="27.183757" lon="103.330191"><ele>2910.156</ele><time>2026-08-08T23:52:19.000Z</time></trkpt>
        <trkpt lat="27.183707" lon="103.330262"><ele>2909.3096</ele><time>2026-08-08T23:52:21.000Z</time></trkpt>
        <trkpt lat="27.183678" lon="103.330307"><ele>2909.282</ele><time>2026-08-08T23:52:22.000Z</time></trkpt>
        <trkpt lat="27.183648" lon="103.330353"><ele>2908.5605</ele><time>2026-08-08T23:52:23.000Z</time></trkpt>
        <trkpt lat="27.183612" lon="103.330416"><ele>2909.2922</ele><time>2026-08-08T23:52:24.000Z</time></trkpt>
        <trkpt lat="27.183584" lon="103.330464"><ele>2908.6765</ele><time>2026-08-08T23:52:25.000Z</time></trkpt>
        <trkpt lat="27.183552" lon="103.330512"><ele>2908.4094</ele><time>2026-08-08T23:52:26.000Z</time></trkpt>
        <trkpt lat="27.183517" lon="103.330546"><ele>2908.205</ele><time>2026-08-08T23:52:27.000Z</time></trkpt>
        <trkpt lat="27.183467" lon="103.330582"><ele>2907.6853</ele><time>2026-08-08T23:52:28.000Z</time></trkpt>
        <trkpt lat="27.183413" lon="103.330612"><ele>2908.197</ele><time>2026-08-08T23:52:29.000Z</time></trkpt>
        <trkpt lat="27.183347" lon="103.330633"><ele>2906.9749</ele><time>2026-08-08T23:52:30.000Z</time></trkpt>
        <trkpt lat="27.183276" lon="103.330649"><ele>2905.6387</ele><time>2026-08-08T23:52:31.000Z</time></trkpt>
        <trkpt lat="27.18321" lon="103.330661"><ele>2905.9263</ele><time>2026-08-08T23:52:32.000Z</time></trkpt>
        <trkpt lat="27.183138" lon="103.330679"><ele>2905.409</ele><time>2026-08-08T23:52:33.000Z</time></trkpt>
        <trkpt lat="27.183071" lon="103.330701"><ele>2904.458</ele><time>2026-08-08T23:52:34.000Z</time></trkpt>
        <trkpt lat="27.183003" lon="103.330732"><ele>2903.6812</ele><time>2026-08-08T23:52:35.000Z</time></trkpt>
        <trkpt lat="27.182946" lon="103.330756"><ele>2904.0479</ele><time>2026-08-08T23:52:36.000Z</time></trkpt>
        <trkpt lat="27.182884" lon="103.330779"><ele>2902.909</ele><time>2026-08-08T23:52:37.000Z</time></trkpt>
        <trkpt lat="27.182825" lon="103.3308"><ele>2902.1636</ele><time>2026-08-08T23:52:38.000Z</time></trkpt>
        <trkpt lat="27.182763" lon="103.33082"><ele>2902.4026</ele><time>2026-08-08T23:52:39.000Z</time></trkpt>
        <trkpt lat="27.182703" lon="103.330839"><ele>2901.9097</ele><time>2026-08-08T23:52:40.000Z</time></trkpt>
        <trkpt lat="27.18264" lon="103.33086"><ele>2901.2317</ele><time>2026-08-08T23:52:41.000Z</time></trkpt>
        <trkpt lat="27.182577" lon="103.33088"><ele>2901.0042</ele><time>2026-08-08T23:52:42.000Z</time></trkpt>
        <trkpt lat="27.182505" lon="103.330917"><ele>2900.0212</ele><time>2026-08-08T23:52:43.000Z</time></trkpt>
        <trkpt lat="27.182444" lon="103.330969"><ele>2900.2708</ele><time>2026-08-08T23:52:44.000Z</time></trkpt>
        <trkpt lat="27.182401" lon="103.331009"><ele>2899.2622</ele><time>2026-08-08T23:52:45.000Z</time></trkpt>
        <trkpt lat="27.182362" lon="103.331046"><ele>2898.9702</ele><time>2026-08-08T23:52:46.000Z</time></trkpt>
        <trkpt lat="27.182323" lon="103.331083"><ele>2898.1748</ele><time>2026-08-08T23:52:47.000Z</time></trkpt>
        <trkpt lat="27.182267" lon="103.331133"><ele>2896.9736</ele><time>2026-08-08T23:52:49.000Z</time></trkpt>
        <trkpt lat="27.182224" lon="103.33117"><ele>2896.1597</ele><time>2026-08-08T23:52:52.000Z</time></trkpt>
        <trkpt lat="27.18218" lon="103.331207"><ele>2895.8367</ele><time>2026-08-08T23:52:54.000Z</time></trkpt>
        <trkpt lat="27.182119" lon="103.33126"><ele>2895.2239</ele><time>2026-08-08T23:52:56.000Z</time></trkpt>
        <trkpt lat="27.182078" lon="103.331296"><ele>2894.7205</ele><time>2026-08-08T23:52:57.000Z</time></trkpt>
        <trkpt lat="27.182041" lon="103.33133"><ele>2894.4375</ele><time>2026-08-08T23:52:58.000Z</time></trkpt>
        <trkpt lat="27.181977" lon="103.331388"><ele>2893.6775</ele><time>2026-08-08T23:53:00.000Z</time></trkpt>
        <trkpt lat="27.181941" lon="103.331423"><ele>2893.4531</ele><time>2026-08-08T23:53:01.000Z</time></trkpt>
        <trkpt lat="27.1819" lon="103.331462"><ele>2893.907</ele><time>2026-08-08T23:53:02.000Z</time></trkpt>
        <trkpt lat="27.181835" lon="103.331526"><ele>2893.3208</ele><time>2026-08-08T23:53:04.000Z</time></trkpt>
        <trkpt lat="27.181795" lon="103.331567"><ele>2893.03</ele><time>2026-08-08T23:53:05.000Z</time></trkpt>
        <trkpt lat="27.181761" lon="103.331603"><ele>2891.7178</ele><time>2026-08-08T23:53:06.000Z</time></trkpt>
        <trkpt lat="27.181726" lon="103.331639"><ele>2891.915</ele><time>2026-08-08T23:53:07.000Z</time></trkpt>
        <trkpt lat="27.181669" lon="103.33171"><ele>2890.7476</ele><time>2026-08-08T23:53:09.000Z</time></trkpt>
        <trkpt lat="27.181625" lon="103.331785"><ele>2890.4785</ele><time>2026-08-08T23:53:11.000Z</time></trkpt>
        <trkpt lat="27.181596" lon="103.331828"><ele>2888.5134</ele><time>2026-08-08T23:53:15.000Z</time></trkpt>
        <trkpt lat="27.181566" lon="103.331867"><ele>2888.3352</ele><time>2026-08-08T23:53:18.000Z</time></trkpt>
        <trkpt lat="27.181516" lon="103.331921"><ele>2888.1177</ele><time>2026-08-08T23:53:20.000Z</time></trkpt>
        <trkpt lat="27.181469" lon="103.331968"><ele>2897.715</ele><time>2026-08-08T23:53:21.000Z</time></trkpt>
        <trkpt lat="27.181433" lon="103.332004"><ele>2887.2495</ele><time>2026-08-08T23:53:22.000Z</time></trkpt>
        <trkpt lat="27.181369" lon="103.332059"><ele>2885.4182</ele><time>2026-08-08T23:53:24.000Z</time></trkpt>
        <trkpt lat="27.181327" lon="103.332092"><ele>2884.3174</ele><time>2026-08-08T23:53:26.000Z</time></trkpt>
        <trkpt lat="27.181278" lon="103.332113"><ele>2883.403</ele><time>2026-08-08T23:54:26.000Z</time></trkpt>
        <trkpt lat="27.181214" lon="103.332147"><ele>2882.7026</ele><time>2026-08-08T23:54:28.000Z</time></trkpt>
        <trkpt lat="27.181155" lon="103.332177"><ele>2873.6792</ele><time>2026-08-08T23:54:30.000Z</time></trkpt>
        <trkpt lat="27.181098" lon="103.332202"><ele>2882.946</ele><time>2026-08-08T23:54:32.000Z</time></trkpt>
        <trkpt lat="27.181035" lon="103.332223"><ele>2883.6104</ele><time>2026-08-08T23:54:34.000Z</time></trkpt>
        <trkpt lat="27.180987" lon="103.332239"><ele>2882.8713</ele><time>2026-08-08T23:54:36.000Z</time></trkpt>
        <trkpt lat="27.180941" lon="103.332252"><ele>2881.3499</ele><time>2026-08-08T23:54:43.000Z</time></trkpt>
        <trkpt lat="27.180893" lon="103.332255"><ele>2870.1855</ele><time>2026-08-08T23:55:12.000Z</time></trkpt>
        <trkpt lat="27.180845" lon="103.332268"><ele>2883.4854</ele><time>2026-08-08T23:55:43.000Z</time></trkpt>
        <trkpt lat="27.180802" lon="103.332168"><ele>2866.8752</ele><time>2026-08-08T23:55:45.000Z</time></trkpt>
        <trkpt lat="27.180797" lon="103.332117"><ele>2868.9387</ele><time>2026-08-08T23:56:02.000Z</time></trkpt>
        <trkpt lat="27.180832" lon="103.332079"><ele>2869.5808</ele><time>2026-08-08T23:56:07.000Z</time></trkpt>
        <trkpt lat="27.180795" lon="103.332119"><ele>2867.6553</ele><time>2026-08-08T23:57:27.000Z</time></trkpt>
        <trkpt lat="27.180734" lon="103.332137"><ele>2869.7063</ele><time>2026-08-08T23:57:31.000Z</time></trkpt>
        <trkpt lat="27.18068" lon="103.332139"><ele>2868.4011</ele><time>2026-08-08T23:57:36.000Z</time></trkpt>
        <trkpt lat="27.18064" lon="103.332103"><ele>2867.325</ele><time>2026-08-08T23:57:40.000Z</time></trkpt>
        <trkpt lat="27.180591" lon="103.332135"><ele>2867.817</ele><time>2026-08-08T23:58:35.000Z</time></trkpt>
        <trkpt lat="27.180539" lon="103.332139"><ele>2866.7124</ele><time>2026-08-08T23:58:39.000Z</time></trkpt>
        <trkpt lat="27.180489" lon="103.332127"><ele>2866.4822</ele><time>2026-08-08T23:58:44.000Z</time></trkpt>
        <trkpt lat="27.180487" lon="103.332184"><ele>2876.3823</ele><time>2026-08-08T23:59:21.000Z</time></trkpt>
        <trkpt lat="27.180526" lon="103.33221"><ele>2869.698</ele><time>2026-08-08T23:59:38.000Z</time></trkpt>
        <trkpt lat="27.180507" lon="103.332158"><ele>2869.737</ele><time>2026-08-08T23:59:43.000Z</time></trkpt>
        <trkpt lat="27.180476" lon="103.332198"><ele>2868.682</ele><time>2026-08-09T00:00:43.000Z</time></trkpt>
        <trkpt lat="27.180526" lon="103.33218"><ele>2875.327</ele><time>2026-08-09T00:01:35.000Z</time></trkpt>
        <trkpt lat="27.180581" lon="103.332161"><ele>2870.7502</ele><time>2026-08-09T00:01:55.000Z</time></trkpt>
        <trkpt lat="27.180602" lon="103.332108"><ele>2866.6025</ele><time>2026-08-09T00:02:46.000Z</time></trkpt>
        <trkpt lat="27.180636" lon="103.332149"><ele>2869.1538</ele><time>2026-08-09T00:03:34.000Z</time></trkpt>
        <trkpt lat="27.180678" lon="103.332179"><ele>2870.966</ele><time>2026-08-09T00:03:41.000Z</time></trkpt>
        <trkpt lat="27.18072" lon="103.3322"><ele>2871.6616</ele><time>2026-08-09T00:03:48.000Z</time></trkpt>
        <trkpt lat="27.180759" lon="103.33223"><ele>2872.6191</ele><time>2026-08-09T00:03:54.000Z</time></trkpt>
        <trkpt lat="27.180798" lon="103.332258"><ele>2874.2688</ele><time>2026-08-09T00:04:03.000Z</time></trkpt>
        <trkpt lat="27.180846" lon="103.332278"><ele>2871.7698</ele><time>2026-08-09T00:04:20.000Z</time></trkpt>
        <trkpt lat="27.180891" lon="103.332293"><ele>2873.4233</ele><time>2026-08-09T00:04:29.000Z</time></trkpt>
        <trkpt lat="27.180937" lon="103.33231"><ele>2872.2983</ele><time>2026-08-09T00:04:35.000Z</time></trkpt>
        <trkpt lat="27.180988" lon="103.332304"><ele>2874.284</ele><time>2026-08-09T00:04:41.000Z</time></trkpt>
        <trkpt lat="27.181008" lon="103.332349"><ele>2872.715</ele><time>2026-08-09T00:05:15.000Z</time></trkpt>
        <trkpt lat="27.180963" lon="103.332321"><ele>2872.5513</ele><time>2026-08-09T00:05:22.000Z</time></trkpt>
        <trkpt lat="27.180886" lon="103.332338"><ele>2873.6682</ele><time>2026-08-09T00:05:24.000Z</time></trkpt>
        <trkpt lat="27.180834" lon="103.33236"><ele>2873.6868</ele><time>2026-08-09T00:05:25.000Z</time></trkpt>
        <trkpt lat="27.180773" lon="103.332388"><ele>2873.7441</ele><time>2026-08-09T00:05:26.000Z</time></trkpt>
        <trkpt lat="27.180712" lon="103.332426"><ele>2873.588</ele><time>2026-08-09T00:05:27.000Z</time></trkpt>
        <trkpt lat="27.180653" lon="103.33246"><ele>2873.4775</ele><time>2026-08-09T00:05:28.000Z</time></trkpt>
        <trkpt lat="27.180598" lon="103.332494"><ele>2873.596</ele><time>2026-08-09T00:05:29.000Z</time></trkpt>
        <trkpt lat="27.180551" lon="103.332524"><ele>2873.4905</ele><time>2026-08-09T00:05:30.000Z</time></trkpt>
        <trkpt lat="27.180512" lon="103.33255"><ele>2873.764</ele><time>2026-08-09T00:05:31.000Z</time></trkpt>
        <trkpt lat="27.180473" lon="103.332577"><ele>2869.9019</ele><time>2026-08-09T00:05:32.000Z</time></trkpt>
        <trkpt lat="27.180432" lon="103.332607"><ele>2872.8494</ele><time>2026-08-09T00:05:33.000Z</time></trkpt>
        <trkpt lat="27.180389" lon="103.332642"><ele>2875.4668</ele><time>2026-08-09T00:05:34.000Z</time></trkpt>
        <trkpt lat="27.180346" lon="103.332679"><ele>2881.091</ele><time>2026-08-09T00:05:35.000Z</time></trkpt>
        <trkpt lat="27.180304" lon="103.332715"><ele>2876.3345</ele><time>2026-08-09T00:05:36.000Z</time></trkpt>
        <trkpt lat="27.18026" lon="103.332754"><ele>2876.5662</ele><time>2026-08-09T00:05:37.000Z</time></trkpt>
        <trkpt lat="27.180216" lon="103.332797"><ele>2877.4287</ele><time>2026-08-09T00:05:38.000Z</time></trkpt>
        <trkpt lat="27.180171" lon="103.332841"><ele>2878.3105</ele><time>2026-08-09T00:05:39.000Z</time></trkpt>
        <trkpt lat="27.18012" lon="103.332885"><ele>2878.7651</ele><time>2026-08-09T00:05:40.000Z</time></trkpt>
        <trkpt lat="27.180065" lon="103.33293"><ele>2878.331</ele><time>2026-08-09T00:05:41.000Z</time></trkpt>
        <trkpt lat="27.180005" lon="103.33297"><ele>2875.7144</ele><time>2026-08-09T00:05:42.000Z</time></trkpt>
        <trkpt lat="27.179944" lon="103.333007"><ele>2875.9282</ele><time>2026-08-09T00:05:43.000Z</time></trkpt>
        <trkpt lat="27.179884" lon="103.333041"><ele>2876.3606</ele><time>2026-08-09T00:05:44.000Z</time></trkpt>
        <trkpt lat="27.179834" lon="103.333075"><ele>2877.637</ele><time>2026-08-09T00:05:45.000Z</time></trkpt>
        <trkpt lat="27.179793" lon="103.333112"><ele>2877.2356</ele><time>2026-08-09T00:05:46.000Z</time></trkpt>
        <trkpt lat="27.179722" lon="103.333147"><ele>2876.492</ele><time>2026-08-09T00:05:48.000Z</time></trkpt>
        <trkpt lat="27.179663" lon="103.333169"><ele>2876.2725</ele><time>2026-08-09T00:05:49.000Z</time></trkpt>
        <trkpt lat="27.179616" lon="103.333188"><ele>2876.7495</ele><time>2026-08-09T00:05:50.000Z</time></trkpt>
        <trkpt lat="27.179552" lon="103.333195"><ele>2883.728</ele><time>2026-08-09T00:05:52.000Z</time></trkpt>
        <trkpt lat="27.179504" lon="103.333159"><ele>2884.1746</ele><time>2026-08-09T00:05:57.000Z</time></trkpt>
        <trkpt lat="27.179455" lon="103.33314"><ele>2885.8538</ele><time>2026-08-09T00:05:59.000Z</time></trkpt>
        <trkpt lat="27.179408" lon="103.333126"><ele>2885.3381</ele><time>2026-08-09T00:06:00.000Z</time></trkpt>
        <trkpt lat="27.179371" lon="103.333083"><ele>2885.9639</ele><time>2026-08-09T00:06:01.000Z</time></trkpt>
        <trkpt lat="27.179302" lon="103.333085"><ele>2887.837</ele><time>2026-08-09T00:06:04.000Z</time></trkpt>
        <trkpt lat="27.179271" lon="103.333024"><ele>2887.8347</ele><time>2026-08-09T00:06:05.000Z</time></trkpt>
        <trkpt lat="27.179226" lon="103.333006"><ele>2889.046</ele><time>2026-08-09T00:06:07.000Z</time></trkpt>
        <trkpt lat="27.179179" lon="103.332987"><ele>2890.752</ele><time>2026-08-09T00:06:09.000Z</time></trkpt>
        <trkpt lat="27.179135" lon="103.332875"><ele>2891.2014</ele><time>2026-08-09T00:06:10.000Z</time></trkpt>
        <trkpt lat="27.179116" lon="103.332786"><ele>2892.2744</ele><time>2026-08-09T00:06:12.000Z</time></trkpt>
        <trkpt lat="27.179098" lon="103.332694"><ele>2893.8298</ele><time>2026-08-09T00:06:14.000Z</time></trkpt>
        <trkpt lat="27.179076" lon="103.332594"><ele>2895.2256</ele><time>2026-08-09T00:06:16.000Z</time></trkpt>
        <trkpt lat="27.179053" lon="103.33251"><ele>2896.6992</ele><time>2026-08-09T00:06:18.000Z</time></trkpt>
        <trkpt lat="27.179069" lon="103.33241"><ele>2898.2466</ele><time>2026-08-09T00:06:20.000Z</time></trkpt>
        <trkpt lat="27.179045" lon="103.332323"><ele>2899.5928</ele><time>2026-08-09T00:06:22.000Z</time></trkpt>
        <trkpt lat="27.179028" lon="103.332275"><ele>2900.3477</ele><time>2026-08-09T00:06:23.000Z</time></trkpt>
        <trkpt lat="27.17901" lon="103.332229"><ele>2900.976</ele><time>2026-08-09T00:06:24.000Z</time></trkpt>
        <trkpt lat="27.178982" lon="103.332148"><ele>2902.521</ele><time>2026-08-09T00:06:26.000Z</time></trkpt>
        <trkpt lat="27.178959" lon="103.332072"><ele>2904.5728</ele><time>2026-08-09T00:06:28.000Z</time></trkpt>
        <trkpt lat="27.178944" lon="103.332011"><ele>2905.4602</ele><time>2026-08-09T00:06:30.000Z</time></trkpt>
        <trkpt lat="27.178924" lon="103.331932"><ele>2906.904</ele><time>2026-08-09T00:06:32.000Z</time></trkpt>
        <trkpt lat="27.178921" lon="103.331836"><ele>2908.2117</ele><time>2026-08-09T00:06:34.000Z</time></trkpt>
        <trkpt lat="27.178889" lon="103.331769"><ele>2909.0132</ele><time>2026-08-09T00:06:36.000Z</time></trkpt>
        <trkpt lat="27.178869" lon="103.331721"><ele>2909.2844</ele><time>2026-08-09T00:06:37.000Z</time></trkpt>
        <trkpt lat="27.17883" lon="103.331663"><ele>2910.1475</ele><time>2026-08-09T00:06:39.000Z</time></trkpt>
        <trkpt lat="27.178796" lon="103.331619"><ele>2911.1685</ele><time>2026-08-09T00:06:41.000Z</time></trkpt>
        <trkpt lat="27.178775" lon="103.331568"><ele>2910.7627</ele><time>2026-08-09T00:06:43.000Z</time></trkpt>
        <trkpt lat="27.178755" lon="103.331515"><ele>2912.4324</ele><time>2026-08-09T00:06:46.000Z</time></trkpt>
        <trkpt lat="27.178749" lon="103.33144"><ele>2913.0771</ele><time>2026-08-09T00:06:49.000Z</time></trkpt>
        <trkpt lat="27.178758" lon="103.331367"><ele>2912.569</ele><time>2026-08-09T00:06:51.000Z</time></trkpt>
        <trkpt lat="27.178775" lon="103.331301"><ele>2913.115</ele><time>2026-08-09T00:06:53.000Z</time></trkpt>
        <trkpt lat="27.178822" lon="103.331307"><ele>2908.7925</ele><time>2026-08-09T00:07:10.000Z</time></trkpt>
        <trkpt lat="27.178825" lon="103.331367"><ele>2910.2295</ele><time>2026-08-09T00:07:18.000Z</time></trkpt>
        <trkpt lat="27.178836" lon="103.331418"><ele>2911.5603</ele><time>2026-08-09T00:07:23.000Z</time></trkpt>
        <trkpt lat="27.178838" lon="103.331475"><ele>2912.0857</ele><time>2026-08-09T00:07:29.000Z</time></trkpt>
        <trkpt lat="27.178891" lon="103.331506"><ele>2911.6704</ele><time>2026-08-09T00:08:02.000Z</time></trkpt>
        <trkpt lat="27.178845" lon="103.331505"><ele>2911.3308</ele><time>2026-08-09T00:08:33.000Z</time></trkpt>
        <trkpt lat="27.178814" lon="103.331457"><ele>2912.0747</ele><time>2026-08-09T00:08:36.000Z</time></trkpt>
        <trkpt lat="27.178803" lon="103.331401"><ele>2911.2092</ele><time>2026-08-09T00:08:40.000Z</time></trkpt>
        <trkpt lat="27.178829" lon="103.331349"><ele>2911.6902</ele><time>2026-08-09T00:08:45.000Z</time></trkpt>
        <trkpt lat="27.17885" lon="103.331297"><ele>2911.5535</ele><time>2026-08-09T00:08:50.000Z</time></trkpt>
        <trkpt lat="27.17887" lon="103.331242"><ele>2913.1475</ele><time>2026-08-09T00:08:58.000Z</time></trkpt>
        <trkpt lat="27.178854" lon="103.331186"><ele>2913.3323</ele><time>2026-08-09T00:09:01.000Z</time></trkpt>
        <trkpt lat="27.178844" lon="103.331128"><ele>2913.2527</ele><time>2026-08-09T00:09:06.000Z</time></trkpt>
        <trkpt lat="27.178839" lon="103.331076"><ele>2914.1914</ele><time>2026-08-09T00:09:14.000Z</time></trkpt>
        <trkpt lat="27.178836" lon="103.331021"><ele>2909.2727</ele><time>2026-08-09T00:09:34.000Z</time></trkpt>
        <trkpt lat="27.178856" lon="103.330974"><ele>2915.746</ele><time>2026-08-09T00:09:50.000Z</time></trkpt>
        <trkpt lat="27.178894" lon="103.330945"><ele>2913.2483</ele><time>2026-08-09T00:09:57.000Z</time></trkpt>
        <trkpt lat="27.178941" lon="103.330923"><ele>2915.648</ele><time>2026-08-09T00:10:04.000Z</time></trkpt>
        <trkpt lat="27.178996" lon="103.330925"><ele>2914.7788</ele><time>2026-08-09T00:10:09.000Z</time></trkpt>
        <trkpt lat="27.179044" lon="103.330929"><ele>2915.8752</ele><time>2026-08-09T00:10:14.000Z</time></trkpt>
        <trkpt lat="27.179091" lon="103.330909"><ele>2915.3005</ele><time>2026-08-09T00:10:22.000Z</time></trkpt>
        <trkpt lat="27.1791" lon="103.330858"><ele>2914.1917</ele><time>2026-08-09T00:10:30.000Z</time></trkpt>
        <trkpt lat="27.179112" lon="103.330808"><ele>2914.679</ele><time>2026-08-09T00:10:37.000Z</time></trkpt>
        <trkpt lat="27.179121" lon="103.330756"><ele>2918.023</ele><time>2026-08-09T00:10:47.000Z</time></trkpt>
        <trkpt lat="27.179158" lon="103.33072"><ele>2919.6355</ele><time>2026-08-09T00:11:12.000Z</time></trkpt>
        <trkpt lat="27.179123" lon="103.330753"><ele>2914.9978</ele><time>2026-08-09T00:12:00.000Z</time></trkpt>
        <trkpt lat="27.179077" lon="103.330749"><ele>2920.5864</ele><time>2026-08-09T00:12:40.000Z</time></trkpt>
        <trkpt lat="27.179037" lon="103.330777"><ele>2908.6055</ele><time>2026-08-09T00:12:50.000Z</time></trkpt>
        <trkpt lat="27.178988" lon="103.33076"><ele>2910.2512</ele><time>2026-08-09T00:12:57.000Z</time></trkpt>
        <trkpt lat="27.178962" lon="103.330716"><ele>2911.5117</ele><time>2026-08-09T00:13:05.000Z</time></trkpt>
        <trkpt lat="27.178949" lon="103.330663"><ele>2915.5547</ele><time>2026-08-09T00:13:13.000Z</time></trkpt>
        <trkpt lat="27.178967" lon="103.330612"><ele>2915.7021</ele><time>2026-08-09T00:13:20.000Z</time></trkpt>
        <trkpt lat="27.179006" lon="103.33058"><ele>2912.9004</ele><time>2026-08-09T00:13:28.000Z</time></trkpt>
        <trkpt lat="27.179051" lon="103.330572"><ele>2914.4663</ele><time>2026-08-09T00:13:34.000Z</time></trkpt>
        <trkpt lat="27.179098" lon="103.330571"><ele>2916.0093</ele><time>2026-08-09T00:14:24.000Z</time></trkpt>
        <trkpt lat="27.17906" lon="103.330609"><ele>2915.7</ele><time>2026-08-09T00:17:11.000Z</time></trkpt>
        <trkpt lat="27.179022" lon="103.330637"><ele>2915.5222</ele><time>2026-08-09T00:17:15.000Z</time></trkpt>
        <trkpt lat="27.178976" lon="103.33064"><ele>2914.804</ele><time>2026-08-09T00:17:27.000Z</time></trkpt>
        <trkpt lat="27.17893" lon="103.330639"><ele>2917.006</ele><time>2026-08-09T00:17:34.000Z</time></trkpt>
        <trkpt lat="27.178878" lon="103.33064"><ele>2911.1042</ele><time>2026-08-09T00:17:40.000Z</time></trkpt>
        <trkpt lat="27.178839" lon="103.330602"><ele>2916.618</ele><time>2026-08-09T00:17:48.000Z</time></trkpt>
        <trkpt lat="27.178825" lon="103.330554"><ele>2916.9465</ele><time>2026-08-09T00:17:54.000Z</time></trkpt>
        <trkpt lat="27.178815" lon="103.330505"><ele>2916.7417</ele><time>2026-08-09T00:18:00.000Z</time></trkpt>
        <trkpt lat="27.178797" lon="103.33045"><ele>2920.038</ele><time>2026-08-09T00:18:08.000Z</time></trkpt>
        <trkpt lat="27.17877" lon="103.330401"><ele>2916.5503</ele><time>2026-08-09T00:18:15.000Z</time></trkpt>
        <trkpt lat="27.178732" lon="103.330361"><ele>2921.6458</ele><time>2026-08-09T00:18:22.000Z</time></trkpt>
        <trkpt lat="27.178704" lon="103.330318"><ele>2918.0344</ele><time>2026-08-09T00:18:31.000Z</time></trkpt>
        <trkpt lat="27.178703" lon="103.330264"><ele>2917.7969</ele><time>2026-08-09T00:19:04.000Z</time></trkpt>
        <trkpt lat="27.178686" lon="103.330207"><ele>2923.1135</ele><time>2026-08-09T00:19:09.000Z</time></trkpt>
        <trkpt lat="27.178677" lon="103.330157"><ele>2924.3025</ele><time>2026-08-09T00:19:15.000Z</time></trkpt>
        <trkpt lat="27.178682" lon="103.330104"><ele>2918.9805</ele><time>2026-08-09T00:19:29.000Z</time></trkpt>
        <trkpt lat="27.17866" lon="103.330059"><ele>2923.9514</ele><time>2026-08-09T00:19:42.000Z</time></trkpt>
        <trkpt lat="27.17864" lon="103.33001"><ele>2923.138</ele><time>2026-08-09T00:19:54.000Z</time></trkpt>
        <trkpt lat="27.178608" lon="103.329972"><ele>2923.409</ele><time>2026-08-09T00:20:03.000Z</time></trkpt>
        <trkpt lat="27.178584" lon="103.329925"><ele>2924.4133</ele><time>2026-08-09T00:20:33.000Z</time></trkpt>
        <trkpt lat="27.178552" lon="103.329886"><ele>2927.0522</ele><time>2026-08-09T00:20:45.000Z</time></trkpt>
        <trkpt lat="27.178552" lon="103.32983"><ele>2931.9038</ele><time>2026-08-09T00:21:16.000Z</time></trkpt>
        <trkpt lat="27.17853" lon="103.329783"><ele>2931.9705</ele><time>2026-08-09T00:21:36.000Z</time></trkpt>
        <trkpt lat="27.178504" lon="103.329741"><ele>2933.799</ele><time>2026-08-09T00:21:44.000Z</time></trkpt>
        <trkpt lat="27.178488" lon="103.329691"><ele>2933.1313</ele><time>2026-08-09T00:21:52.000Z</time></trkpt>
        <trkpt lat="27.178464" lon="103.329647"><ele>2937.5078</ele><time>2026-08-09T00:22:00.000Z</time></trkpt>
        <trkpt lat="27.17843" lon="103.329608"><ele>2935.1216</ele><time>2026-08-09T00:22:23.000Z</time></trkpt>
        <trkpt lat="27.178407" lon="103.329559"><ele>2935.6724</ele><time>2026-08-09T00:22:31.000Z</time></trkpt>
        <trkpt lat="27.178399" lon="103.329504"><ele>2936.258</ele><time>2026-08-09T00:22:39.000Z</time></trkpt>
        <trkpt lat="27.178375" lon="103.329459"><ele>2936.8945</ele><time>2026-08-09T00:22:46.000Z</time></trkpt>
        <trkpt lat="27.178419" lon="103.329478"><ele>2942.5632</ele><time>2026-08-09T00:23:28.000Z</time></trkpt>
        <trkpt lat="27.178438" lon="103.329532"><ele>2938.1301</ele><time>2026-08-09T00:23:50.000Z</time></trkpt>
        <trkpt lat="27.178405" lon="103.329496"><ele>2942.1543</ele><time>2026-08-09T00:25:14.000Z</time></trkpt>
        <trkpt lat="27.178367" lon="103.329467"><ele>2942.378</ele><time>2026-08-09T00:25:22.000Z</time></trkpt>
        <trkpt lat="27.178325" lon="103.329444"><ele>2942.3801</ele><time>2026-08-09T00:25:28.000Z</time></trkpt>
        <trkpt lat="27.178284" lon="103.32941"><ele>2941.5317</ele><time>2026-08-09T00:26:28.000Z</time></trkpt>
        <trkpt lat="27.178247" lon="103.329379"><ele>2942.2727</ele><time>2026-08-09T00:26:34.000Z</time></trkpt>
        <trkpt lat="27.17821" lon="103.32935"><ele>2941.1216</ele><time>2026-08-09T00:26:42.000Z</time></trkpt>
        <trkpt lat="27.178173" lon="103.32932"><ele>2942.3987</ele><time>2026-08-09T00:26:48.000Z</time></trkpt>
        <trkpt lat="27.178159" lon="103.329268"><ele>2942.7737</ele><time>2026-08-09T00:27:00.000Z</time></trkpt>
        <trkpt lat="27.178141" lon="103.329222"><ele>2944.7122</ele><time>2026-08-09T00:27:14.000Z</time></trkpt>
        <trkpt lat="27.178143" lon="103.329167"><ele>2945.6843</ele><time>2026-08-09T00:27:26.000Z</time></trkpt>
        <trkpt lat="27.178098" lon="103.329152"><ele>2946.2502</ele><time>2026-08-09T00:27:40.000Z</time></trkpt>
        <trkpt lat="27.178141" lon="103.329135"><ele>2947.4016</ele><time>2026-08-09T00:27:48.000Z</time></trkpt>
        <trkpt lat="27.178187" lon="103.329118"><ele>2950.6711</ele><time>2026-08-09T00:28:02.000Z</time></trkpt>
        <trkpt lat="27.178199" lon="103.329067"><ele>2950.733</ele><time>2026-08-09T00:28:13.000Z</time></trkpt>
        <trkpt lat="27.178201" lon="103.329014"><ele>2945.3716</ele><time>2026-08-09T00:28:22.000Z</time></trkpt>
        <trkpt lat="27.178191" lon="103.328964"><ele>2951.8594</ele><time>2026-08-09T00:28:31.000Z</time></trkpt>
        <trkpt lat="27.178194" lon="103.328911"><ele>2951.6177</ele><time>2026-08-09T00:28:38.000Z</time></trkpt>
        <trkpt lat="27.178217" lon="103.328865"><ele>2953.9016</ele><time>2026-08-09T00:28:52.000Z</time></trkpt>
        <trkpt lat="27.178245" lon="103.328822"><ele>2954.9995</ele><time>2026-08-09T00:29:03.000Z</time></trkpt>
        <trkpt lat="27.178285" lon="103.328786"><ele>2953.333</ele><time>2026-08-09T00:29:13.000Z</time></trkpt>
        <trkpt lat="27.178304" lon="103.328736"><ele>2955.6348</ele><time>2026-08-09T00:29:25.000Z</time></trkpt>
        <trkpt lat="27.178318" lon="103.328683"><ele>2955.2043</ele><time>2026-08-09T00:29:39.000Z</time></trkpt>
        <trkpt lat="27.178353" lon="103.328645"><ele>2957.0515</ele><time>2026-08-09T00:29:46.000Z</time></trkpt>
        <trkpt lat="27.17839" lon="103.328604"><ele>2955.5535</ele><time>2026-08-09T00:30:52.000Z</time></trkpt>
        <trkpt lat="27.178427" lon="103.328568"><ele>2958.5247</ele><time>2026-08-09T00:31:02.000Z</time></trkpt>
        <trkpt lat="27.178466" lon="103.328605"><ele>2959.596</ele><time>2026-08-09T00:32:56.000Z</time></trkpt>
        <trkpt lat="27.178419" lon="103.328607"><ele>2958.3135</ele><time>2026-08-09T00:35:41.000Z</time></trkpt>
        <trkpt lat="27.178372" lon="103.328591"><ele>2958.8967</ele><time>2026-08-09T00:35:48.000Z</time></trkpt>
        <trkpt lat="27.178335" lon="103.328562"><ele>2951.693</ele><time>2026-08-09T00:36:00.000Z</time></trkpt>
        <trkpt lat="27.17829" lon="103.328556"><ele>2958.2188</ele><time>2026-08-09T00:36:12.000Z</time></trkpt>
        <trkpt lat="27.178216" lon="103.328572"><ele>2960.114</ele><time>2026-08-09T00:36:34.000Z</time></trkpt>
        <trkpt lat="27.178188" lon="103.328526"><ele>2957.3694</ele><time>2026-08-09T00:36:55.000Z</time></trkpt>
        <trkpt lat="27.178143" lon="103.328531"><ele>2963.5022</ele><time>2026-08-09T00:37:39.000Z</time></trkpt>
        <trkpt lat="27.178098" lon="103.328545"><ele>2964.286</ele><time>2026-08-09T00:37:44.000Z</time></trkpt>
        <trkpt lat="27.178063" lon="103.32851"><ele>2963.5188</ele><time>2026-08-09T00:37:56.000Z</time></trkpt>
        <trkpt lat="27.178028" lon="103.328477"><ele>2969.3916</ele><time>2026-08-09T00:38:38.000Z</time></trkpt>
        <trkpt lat="27.177989" lon="103.328506"><ele>2974.124</ele><time>2026-08-09T00:39:04.000Z</time></trkpt>
        <trkpt lat="27.177944" lon="103.328513"><ele>2974.5557</ele><time>2026-08-09T00:39:18.000Z</time></trkpt>
        <trkpt lat="27.177895" lon="103.3285"><ele>2976.5017</ele><time>2026-08-09T00:39:39.000Z</time></trkpt>
        <trkpt lat="27.177848" lon="103.328515"><ele>2974.9001</ele><time>2026-08-09T00:39:52.000Z</time></trkpt>
        <trkpt lat="27.177799" lon="103.328517"><ele>2979.7014</ele><time>2026-08-09T00:40:16.000Z</time></trkpt>
        <trkpt lat="27.177755" lon="103.328502"><ele>2982.7302</ele><time>2026-08-09T00:40:28.000Z</time></trkpt>
        <trkpt lat="27.177708" lon="103.328496"><ele>2984.98</ele><time>2026-08-09T00:40:42.000Z</time></trkpt>
        <trkpt lat="27.177691" lon="103.328447"><ele>2988.577</ele><time>2026-08-09T00:41:41.000Z</time></trkpt>
        <trkpt lat="27.177722" lon="103.328485"><ele>2991.257</ele><time>2026-08-09T00:41:57.000Z</time></trkpt>
        <trkpt lat="27.177693" lon="103.328525"><ele>2989.9636</ele><time>2026-08-09T00:42:19.000Z</time></trkpt>
        <trkpt lat="27.177655" lon="103.328553"><ele>2988.4895</ele><time>2026-08-09T00:42:29.000Z</time></trkpt>
        <trkpt lat="27.1777" lon="103.32853"><ele>2989.6514</ele><time>2026-08-09T00:44:45.000Z</time></trkpt>
        <trkpt lat="27.177701" lon="103.328537"><ele>2989.6067</ele><time>2026-08-09T00:44:46.000Z</time></trkpt>
        <trkpt lat="27.177701" lon="103.328537"><ele>2989.6067</ele><time>2026-08-09T00:44:47.000Z</time></trkpt>
        <trkpt lat="27.177772" lon="103.328509"><ele>2986.075</ele><time>2026-08-09T00:48:30.000Z</time></trkpt>
        <trkpt lat="27.17773" lon="103.328536"><ele>2991.696</ele><time>2026-08-09T00:50:24.000Z</time></trkpt>
        <trkpt lat="27.177781" lon="103.328536"><ele>2994.8684</ele><time>2026-08-09T00:55:01.000Z</time></trkpt>
        <trkpt lat="27.177782" lon="103.328536"><ele>2995.1904</ele><time>2026-08-09T00:55:02.000Z</time></trkpt>
        <trkpt lat="27.177782" lon="103.328536"><ele>2995.429</ele><time>2026-08-09T00:55:03.000Z</time></trkpt>
        <trkpt lat="27.177686" lon="103.328561"><ele>2992.9734</ele><time>2026-08-09T00:57:18.000Z</time></trkpt>
        <trkpt lat="27.177642" lon="103.328579"><ele>2995.17</ele><time>2026-08-09T00:58:34.000Z</time></trkpt>
        <trkpt lat="27.1776" lon="103.328548"><ele>2990.0308</ele><time>2026-08-09T00:59:02.000Z</time></trkpt>
        <trkpt lat="27.177563" lon="103.328581"><ele>2990.9712</ele><time>2026-08-09T00:59:19.000Z</time></trkpt>
        <trkpt lat="27.177526" lon="103.32861"><ele>2991.8171</ele><time>2026-08-09T00:59:38.000Z</time></trkpt>
        <trkpt lat="27.177521" lon="103.328664"><ele>2988.3582</ele><time>2026-08-09T01:00:04.000Z</time></trkpt>
        <trkpt lat="27.177517" lon="103.328673"><ele>2988.3582</ele><time>2026-08-09T01:00:05.000Z</time></trkpt>
        <trkpt lat="27.17749" lon="103.328715"><ele>2990.308</ele><time>2026-08-09T01:00:19.000Z</time></trkpt>
        <trkpt lat="27.17745" lon="103.328751"><ele>2988.4922</ele><time>2026-08-09T01:00:26.000Z</time></trkpt>
        <trkpt lat="27.177415" lon="103.328786"><ele>2987.2607</ele><time>2026-08-09T01:00:37.000Z</time></trkpt>
        <trkpt lat="27.177374" lon="103.328816"><ele>2988.2998</ele><time>2026-08-09T01:00:46.000Z</time></trkpt>
        <trkpt lat="27.177346" lon="103.328861"><ele>2989.0906</ele><time>2026-08-09T01:00:56.000Z</time></trkpt>
        <trkpt lat="27.177329" lon="103.328814"><ele>2985.5264</ele><time>2026-08-09T01:02:16.000Z</time></trkpt>
        <trkpt lat="27.17736" lon="103.328852"><ele>2991.0002</ele><time>2026-08-09T01:02:50.000Z</time></trkpt>
        <trkpt lat="27.177323" lon="103.328883"><ele>2990.9968</ele><time>2026-08-09T01:03:05.000Z</time></trkpt>
        <trkpt lat="27.177331" lon="103.328936"><ele>2986.0686</ele><time>2026-08-09T01:04:11.000Z</time></trkpt>
        <trkpt lat="27.177346" lon="103.328984"><ele>2988.3967</ele><time>2026-08-09T01:04:17.000Z</time></trkpt>
        <trkpt lat="27.177296" lon="103.328998"><ele>2983.683</ele><time>2026-08-09T01:04:24.000Z</time></trkpt>
        <trkpt lat="27.177332" lon="103.32903"><ele>2982.5623</ele><time>2026-08-09T01:04:39.000Z</time></trkpt>
        <trkpt lat="27.177372" lon="103.329054"><ele>2982.284</ele><time>2026-08-09T01:04:48.000Z</time></trkpt>
        <trkpt lat="27.177335" lon="103.329086"><ele>2985.171</ele><time>2026-08-09T01:05:08.000Z</time></trkpt>
        <trkpt lat="27.17735" lon="103.329138"><ele>2984.5593</ele><time>2026-08-09T01:05:19.000Z</time></trkpt>
        <trkpt lat="27.177381" lon="103.329174"><ele>2977.4114</ele><time>2026-08-09T01:05:33.000Z</time></trkpt>
        <trkpt lat="27.17743" lon="103.32919"><ele>2976.5398</ele><time>2026-08-09T01:05:42.000Z</time></trkpt>
        <trkpt lat="27.177474" lon="103.329201"><ele>2975.9995</ele><time>2026-08-09T01:05:50.000Z</time></trkpt>
        <trkpt lat="27.177443" lon="103.329243"><ele>2975.7793</ele><time>2026-08-09T01:06:03.000Z</time></trkpt>
        <trkpt lat="27.177453" lon="103.329298"><ele>2980.7534</ele><time>2026-08-09T01:06:13.000Z</time></trkpt>
        <trkpt lat="27.177489" lon="103.32933"><ele>2979.4963</ele><time>2026-08-09T01:06:17.000Z</time></trkpt>
        <trkpt lat="27.177513" lon="103.329378"><ele>2977.9717</ele><time>2026-08-09T01:06:29.000Z</time></trkpt>
        <trkpt lat="27.177495" lon="103.329429"><ele>2970.9978</ele><time>2026-08-09T01:06:35.000Z</time></trkpt>
        <trkpt lat="27.177527" lon="103.329469"><ele>2973.7124</ele><time>2026-08-09T01:07:04.000Z</time></trkpt>
        <trkpt lat="27.177503" lon="103.329515"><ele>2973.2014</ele><time>2026-08-09T01:07:13.000Z</time></trkpt>
        <trkpt lat="27.177506" lon="103.329566"><ele>2971.7715</ele><time>2026-08-09T01:07:25.000Z</time></trkpt>
        <trkpt lat="27.177518" lon="103.329618"><ele>2969.3064</ele><time>2026-08-09T01:07:41.000Z</time></trkpt>
        <trkpt lat="27.177558" lon="103.329643"><ele>2968.0906</ele><time>2026-08-09T01:07:52.000Z</time></trkpt>
        <trkpt lat="27.177574" lon="103.329691"><ele>2966.4583</ele><time>2026-08-09T01:07:59.000Z</time></trkpt>
        <trkpt lat="27.177531" lon="103.329711"><ele>2959.584</ele><time>2026-08-09T01:08:12.000Z</time></trkpt>
        <trkpt lat="27.177483" lon="103.32971"><ele>2958.5</ele><time>2026-08-09T01:08:19.000Z</time></trkpt>
        <trkpt lat="27.177432" lon="103.329697"><ele>2957.3962</ele><time>2026-08-09T01:08:27.000Z</time></trkpt>
        <trkpt lat="27.17743" lon="103.329751"><ele>2959.4822</ele><time>2026-08-09T01:08:36.000Z</time></trkpt>
        <trkpt lat="27.17743" lon="103.329806"><ele>2958.206</ele><time>2026-08-09T01:08:45.000Z</time></trkpt>
        <trkpt lat="27.177431" lon="103.329859"><ele>2957.1719</ele><time>2026-08-09T01:08:52.000Z</time></trkpt>
        <trkpt lat="27.177445" lon="103.329916"><ele>2956.3794</ele><time>2026-08-09T01:08:59.000Z</time></trkpt>
        <trkpt lat="27.177481" lon="103.329955"><ele>2955.7083</ele><time>2026-08-09T01:09:08.000Z</time></trkpt>
        <trkpt lat="27.177528" lon="103.329967"><ele>2954.0295</ele><time>2026-08-09T01:09:15.000Z</time></trkpt>
        <trkpt lat="27.177579" lon="103.329987"><ele>2952.7505</ele><time>2026-08-09T01:09:23.000Z</time></trkpt>
        <trkpt lat="27.177621" lon="103.330014"><ele>2951.818</ele><time>2026-08-09T01:09:35.000Z</time></trkpt>
        <trkpt lat="27.17766" lon="103.330047"><ele>2947.991</ele><time>2026-08-09T01:09:45.000Z</time></trkpt>
        <trkpt lat="27.177691" lon="103.330087"><ele>2947.4106</ele><time>2026-08-09T01:09:54.000Z</time></trkpt>
        <trkpt lat="27.177714" lon="103.330137"><ele>2946.9958</ele><time>2026-08-09T01:10:01.000Z</time></trkpt>
        <trkpt lat="27.177759" lon="103.330148"><ele>2951.3142</ele><time>2026-08-09T01:10:11.000Z</time></trkpt>
        <trkpt lat="27.177766" lon="103.330198"><ele>2945.87</ele><time>2026-08-09T01:10:30.000Z</time></trkpt>
        <trkpt lat="27.177789" lon="103.33015"><ele>2946.6948</ele><time>2026-08-09T01:10:45.000Z</time></trkpt>
        <trkpt lat="27.177792" lon="103.330092"><ele>2949.2432</ele><time>2026-08-09T01:10:54.000Z</time></trkpt>
        <trkpt lat="27.177797" lon="103.330041"><ele>2949.6045</ele><time>2026-08-09T01:11:00.000Z</time></trkpt>
        <trkpt lat="27.177774" lon="103.330086"><ele>2947.893</ele><time>2026-08-09T01:11:33.000Z</time></trkpt>
        <trkpt lat="27.177778" lon="103.330136"><ele>2945.8005</ele><time>2026-08-09T01:11:39.000Z</time></trkpt>
        <trkpt lat="27.177774" lon="103.330194"><ele>2944.268</ele><time>2026-08-09T01:12:16.000Z</time></trkpt>
        <trkpt lat="27.177754" lon="103.330241"><ele>2944.8638</ele><time>2026-08-09T01:12:24.000Z</time></trkpt>
        <trkpt lat="27.177748" lon="103.330298"><ele>2944.5557</ele><time>2026-08-09T01:12:30.000Z</time></trkpt>
        <trkpt lat="27.177753" lon="103.330357"><ele>2944.9373</ele><time>2026-08-09T01:12:38.000Z</time></trkpt>
        <trkpt lat="27.177747" lon="103.330414"><ele>2944.262</ele><time>2026-08-09T01:12:44.000Z</time></trkpt>
        <trkpt lat="27.17775" lon="103.330466"><ele>2943.5662</ele><time>2026-08-09T01:12:50.000Z</time></trkpt>
        <trkpt lat="27.177701" lon="103.330471"><ele>2943.7542</ele><time>2026-08-09T01:13:03.000Z</time></trkpt>
        <trkpt lat="27.177654" lon="103.330465"><ele>2944.8499</ele><time>2026-08-09T01:13:11.000Z</time></trkpt>
        <trkpt lat="27.177608" lon="103.330449"><ele>2942.4016</ele><time>2026-08-09T01:13:19.000Z</time></trkpt>
        <trkpt lat="27.177562" lon="103.330438"><ele>2940.6335</ele><time>2026-08-09T01:13:34.000Z</time></trkpt>
        <trkpt lat="27.177514" lon="103.330431"><ele>2938.71</ele><time>2026-08-09T01:13:51.000Z</time></trkpt>
        <trkpt lat="27.177561" lon="103.330416"><ele>2939.9353</ele><time>2026-08-09T01:15:37.000Z</time></trkpt>
        <trkpt lat="27.177607" lon="103.33041"><ele>2942.1453</ele><time>2026-08-09T01:15:45.000Z</time></trkpt>
        <trkpt lat="27.177656" lon="103.330406"><ele>2942</ele><time>2026-08-09T01:15:54.000Z</time></trkpt>
        <trkpt lat="27.177701" lon="103.330426"><ele>2943.233</ele><time>2026-08-09T01:16:03.000Z</time></trkpt>
        <trkpt lat="27.177698" lon="103.330477"><ele>2942.6843</ele><time>2026-08-09T01:16:12.000Z</time></trkpt>
        <trkpt lat="27.177689" lon="103.330528"><ele>2943.6655</ele><time>2026-08-09T01:16:28.000Z</time></trkpt>
        <trkpt lat="27.177639" lon="103.33054"><ele>2940.2476</ele><time>2026-08-09T01:16:36.000Z</time></trkpt>
        <trkpt lat="27.177596" lon="103.330563"><ele>2943.2893</ele><time>2026-08-09T01:16:42.000Z</time></trkpt>
        <trkpt lat="27.177558" lon="103.330591"><ele>2938.8516</ele><time>2026-08-09T01:16:48.000Z</time></trkpt>
        <trkpt lat="27.177514" lon="103.330623"><ele>2941.2363</ele><time>2026-08-09T01:16:56.000Z</time></trkpt>
        <trkpt lat="27.1775" lon="103.330672"><ele>2941.2766</ele><time>2026-08-09T01:17:02.000Z</time></trkpt>
        <trkpt lat="27.17748" lon="103.330717"><ele>2940.418</ele><time>2026-08-09T01:17:09.000Z</time></trkpt>
        <trkpt lat="27.177449" lon="103.33076"><ele>2940.0312</ele><time>2026-08-09T01:17:16.000Z</time></trkpt>
        <trkpt lat="27.17741" lon="103.330792"><ele>2939.728</ele><time>2026-08-09T01:17:22.000Z</time></trkpt>
        <trkpt lat="27.177399" lon="103.330742"><ele>2944.352</ele><time>2026-08-09T01:18:18.000Z</time></trkpt>
        <trkpt lat="27.177387" lon="103.330798"><ele>2944.7944</ele><time>2026-08-09T01:19:47.000Z</time></trkpt>
        <trkpt lat="27.177364" lon="103.330843"><ele>2944.9915</ele><time>2026-08-09T01:19:53.000Z</time></trkpt>
        <trkpt lat="27.177338" lon="103.330886"><ele>2944.6934</ele><time>2026-08-09T01:20:00.000Z</time></trkpt>
        <trkpt lat="27.177301" lon="103.330922"><ele>2942.0793</ele><time>2026-08-09T01:20:09.000Z</time></trkpt>
        <trkpt lat="27.177257" lon="103.330943"><ele>2940.7915</ele><time>2026-08-09T01:20:21.000Z</time></trkpt>
        <trkpt lat="27.177214" lon="103.33097"><ele>2941.007</ele><time>2026-08-09T01:20:27.000Z</time></trkpt>
        <trkpt lat="27.17717" lon="103.330982"><ele>2941.3198</ele><time>2026-08-09T01:20:33.000Z</time></trkpt>
        <trkpt lat="27.177122" lon="103.330981"><ele>2943.8142</ele><time>2026-08-09T01:20:45.000Z</time></trkpt>
        <trkpt lat="27.177077" lon="103.330965"><ele>2943.769</ele><time>2026-08-09T01:20:52.000Z</time></trkpt>
        <trkpt lat="27.177029" lon="103.330969"><ele>2944.182</ele><time>2026-08-09T01:20:57.000Z</time></trkpt>
        <trkpt lat="27.176979" lon="103.330969"><ele>2951.003</ele><time>2026-08-09T01:21:04.000Z</time></trkpt>
        <trkpt lat="27.176927" lon="103.330977"><ele>2946.6199</ele><time>2026-08-09T01:21:09.000Z</time></trkpt>
        <trkpt lat="27.176878" lon="103.330968"><ele>2948.0637</ele><time>2026-08-09T01:21:15.000Z</time></trkpt>
        <trkpt lat="27.176826" lon="103.330946"><ele>2950.3547</ele><time>2026-08-09T01:21:25.000Z</time></trkpt>
        <trkpt lat="27.176779" lon="103.330941"><ele>2949.0898</ele><time>2026-08-09T01:21:32.000Z</time></trkpt>
        <trkpt lat="27.176731" lon="103.330941"><ele>2949.4988</ele><time>2026-08-09T01:21:40.000Z</time></trkpt>
        <trkpt lat="27.176677" lon="103.33093"><ele>2945.9414</ele><time>2026-08-09T01:21:47.000Z</time></trkpt>
        <trkpt lat="27.176629" lon="103.330926"><ele>2946.5737</ele><time>2026-08-09T01:21:54.000Z</time></trkpt>
        <trkpt lat="27.176581" lon="103.330924"><ele>2946.5273</ele><time>2026-08-09T01:22:01.000Z</time></trkpt>
        <trkpt lat="27.176529" lon="103.330923"><ele>2946.9717</ele><time>2026-08-09T01:22:08.000Z</time></trkpt>
        <trkpt lat="27.176483" lon="103.330932"><ele>2954.8193</ele><time>2026-08-09T01:22:36.000Z</time></trkpt>
        <trkpt lat="27.176438" lon="103.330921"><ele>2956.98</ele><time>2026-08-09T01:22:46.000Z</time></trkpt>
        <trkpt lat="27.176392" lon="103.330904"><ele>2956.4412</ele><time>2026-08-09T01:22:54.000Z</time></trkpt>
        <trkpt lat="27.176367" lon="103.33086"><ele>2950.0327</ele><time>2026-08-09T01:23:00.000Z</time></trkpt>
        <trkpt lat="27.176334" lon="103.330822"><ele>2949.7815</ele><time>2026-08-09T01:23:11.000Z</time></trkpt>
        <trkpt lat="27.176284" lon="103.330811"><ele>2956.2625</ele><time>2026-08-09T01:23:34.000Z</time></trkpt>
        <trkpt lat="27.176243" lon="103.330836"><ele>2955.7537</ele><time>2026-08-09T01:24:17.000Z</time></trkpt>
        <trkpt lat="27.176197" lon="103.330818"><ele>2956.4153</ele><time>2026-08-09T01:25:14.000Z</time></trkpt>
        <trkpt lat="27.176237" lon="103.330851"><ele>2957.6304</ele><time>2026-08-09T01:25:57.000Z</time></trkpt>
        <trkpt lat="27.176282" lon="103.33087"><ele>2957.737</ele><time>2026-08-09T01:26:46.000Z</time></trkpt>
        <trkpt lat="27.176269" lon="103.330925"><ele>2957.6519</ele><time>2026-08-09T01:27:17.000Z</time></trkpt>
        <trkpt lat="27.176275" lon="103.330979"><ele>2957.421</ele><time>2026-08-09T01:27:23.000Z</time></trkpt>
        <trkpt lat="27.17627" lon="103.330922"><ele>2958.8157</ele><time>2026-08-09T01:27:50.000Z</time></trkpt>
        <trkpt lat="27.176274" lon="103.33087"><ele>2963.0688</ele><time>2026-08-09T01:29:24.000Z</time></trkpt>
        <trkpt lat="27.17625" lon="103.330822"><ele>2958.6</ele><time>2026-08-09T01:29:32.000Z</time></trkpt>
        <trkpt lat="27.176267" lon="103.330877"><ele>2955.3413</ele><time>2026-08-09T01:31:15.000Z</time></trkpt>
        <trkpt lat="27.176276" lon="103.330934"><ele>2955.8726</ele><time>2026-08-09T01:31:25.000Z</time></trkpt>
        <trkpt lat="27.17626" lon="103.330989"><ele>2956.7695</ele><time>2026-08-09T01:31:35.000Z</time></trkpt>
        <trkpt lat="27.176304" lon="103.330999"><ele>2956.0605</ele><time>2026-08-09T01:32:04.000Z</time></trkpt>
        <trkpt lat="27.176281" lon="103.330948"><ele>2955.0935</ele><time>2026-08-09T01:32:24.000Z</time></trkpt>
        <trkpt lat="27.176281" lon="103.330894"><ele>2958.261</ele><time>2026-08-09T01:32:31.000Z</time></trkpt>
        <trkpt lat="27.17627" lon="103.330839"><ele>2954.331</ele><time>2026-08-09T01:32:38.000Z</time></trkpt>
        <trkpt lat="27.176271" lon="103.330897"><ele>2954.316</ele><time>2026-08-09T01:43:08.000Z</time></trkpt>
        <trkpt lat="27.176263" lon="103.330952"><ele>2955.197</ele><time>2026-08-09T01:43:12.000Z</time></trkpt>
        <trkpt lat="27.176253" lon="103.331008"><ele>2953.7686</ele><time>2026-08-09T01:43:17.000Z</time></trkpt>
        <trkpt lat="27.176211" lon="103.331033"><ele>2956.74</ele><time>2026-08-09T01:43:37.000Z</time></trkpt>
        <trkpt lat="27.176179" lon="103.331079"><ele>2957.1304</ele><time>2026-08-09T01:43:45.000Z</time></trkpt>
        <trkpt lat="27.17614" lon="103.331107"><ele>2957.4863</ele><time>2026-08-09T01:43:50.000Z</time></trkpt>
        <trkpt lat="27.176095" lon="103.331129"><ele>2957.2659</ele><time>2026-08-09T01:43:54.000Z</time></trkpt>
        <trkpt lat="27.17614" lon="103.331098"><ele>2953.273</ele><time>2026-08-09T01:44:32.000Z</time></trkpt>
        <trkpt lat="27.17618" lon="103.331072"><ele>2953.722</ele><time>2026-08-09T01:44:38.000Z</time></trkpt>
        <trkpt lat="27.176217" lon="103.331038"><ele>2954.4163</ele><time>2026-08-09T01:44:44.000Z</time></trkpt>
        <trkpt lat="27.176247" lon="103.330993"><ele>2955.1401</ele><time>2026-08-09T01:44:53.000Z</time></trkpt>
        <trkpt lat="27.176291" lon="103.330971"><ele>2960.2866</ele><time>2026-08-09T01:45:07.000Z</time></trkpt>
        <trkpt lat="27.176245" lon="103.330985"><ele>2957.8167</ele><time>2026-08-09T01:46:39.000Z</time></trkpt>
        <trkpt lat="27.176219" lon="103.331036"><ele>2961.5544</ele><time>2026-08-09T01:47:51.000Z</time></trkpt>
        <trkpt lat="27.176184" lon="103.331089"><ele>2961.526</ele><time>2026-08-09T01:47:53.000Z</time></trkpt>
        <trkpt lat="27.176121" lon="103.331143"><ele>2961.194</ele><time>2026-08-09T01:47:55.000Z</time></trkpt>
        <trkpt lat="27.17604" lon="103.331139"><ele>2961.3232</ele><time>2026-08-09T01:47:57.000Z</time></trkpt>
        <trkpt lat="27.175964" lon="103.331119"><ele>2961.715</ele><time>2026-08-09T01:47:59.000Z</time></trkpt>
        <trkpt lat="27.175882" lon="103.33109"><ele>2961.5103</ele><time>2026-08-09T01:48:01.000Z</time></trkpt>
        <trkpt lat="27.175796" lon="103.33107"><ele>2962.1086</ele><time>2026-08-09T01:48:03.000Z</time></trkpt>
        <trkpt lat="27.175747" lon="103.331058"><ele>2961.5212</ele><time>2026-08-09T01:48:04.000Z</time></trkpt>
        <trkpt lat="27.175699" lon="103.331056"><ele>2962.0405</ele><time>2026-08-09T01:48:05.000Z</time></trkpt>
        <trkpt lat="27.175651" lon="103.331047"><ele>2962.4229</ele><time>2026-08-09T01:48:06.000Z</time></trkpt>
        <trkpt lat="27.175561" lon="103.331028"><ele>2962.3677</ele><time>2026-08-09T01:48:08.000Z</time></trkpt>
        <trkpt lat="27.17551" lon="103.331024"><ele>2961.7883</ele><time>2026-08-09T01:48:09.000Z</time></trkpt>
        <trkpt lat="27.17546" lon="103.331017"><ele>2962.0596</ele><time>2026-08-09T01:48:10.000Z</time></trkpt>
        <trkpt lat="27.175412" lon="103.331012"><ele>2961.5647</ele><time>2026-08-09T01:48:11.000Z</time></trkpt>
        <trkpt lat="27.17534" lon="103.331014"><ele>2960.8704</ele><time>2026-08-09T01:48:13.000Z</time></trkpt>
        <trkpt lat="27.175279" lon="103.331007"><ele>2960.7036</ele><time>2026-08-09T01:48:21.000Z</time></trkpt>
        <trkpt lat="27.175227" lon="103.331017"><ele>2960.9685</ele><time>2026-08-09T01:48:23.000Z</time></trkpt>
        <trkpt lat="27.175159" lon="103.331043"><ele>2960.7312</ele><time>2026-08-09T01:48:25.000Z</time></trkpt>
        <trkpt lat="27.175115" lon="103.331057"><ele>2961.5613</ele><time>2026-08-09T01:48:26.000Z</time></trkpt>
        <trkpt lat="27.17507" lon="103.331068"><ele>2961.4702</ele><time>2026-08-09T01:48:27.000Z</time></trkpt>
        <trkpt lat="27.175021" lon="103.331086"><ele>2961.4697</ele><time>2026-08-09T01:48:28.000Z</time></trkpt>
        <trkpt lat="27.174972" lon="103.331096"><ele>2961.383</ele><time>2026-08-09T01:48:29.000Z</time></trkpt>
        <trkpt lat="27.174917" lon="103.331116"><ele>2961.519</ele><time>2026-08-09T01:48:30.000Z</time></trkpt>
        <trkpt lat="27.174867" lon="103.33113"><ele>2961.4788</ele><time>2026-08-09T01:48:31.000Z</time></trkpt>
        <trkpt lat="27.174817" lon="103.331131"><ele>2961.0122</ele><time>2026-08-09T01:48:32.000Z</time></trkpt>
        <trkpt lat="27.17476" lon="103.33114"><ele>2960.8606</ele><time>2026-08-09T01:48:33.000Z</time></trkpt>
        <trkpt lat="27.174696" lon="103.331147"><ele>2960.422</ele><time>2026-08-09T01:48:34.000Z</time></trkpt>
        <trkpt lat="27.174635" lon="103.331151"><ele>2960.274</ele><time>2026-08-09T01:48:35.000Z</time></trkpt>
        <trkpt lat="27.174578" lon="103.331147"><ele>2959.283</ele><time>2026-08-09T01:48:36.000Z</time></trkpt>
        <trkpt lat="27.174525" lon="103.331146"><ele>2959.5076</ele><time>2026-08-09T01:48:37.000Z</time></trkpt>
        <trkpt lat="27.174453" lon="103.331169"><ele>2958.6748</ele><time>2026-08-09T01:48:39.000Z</time></trkpt>
        <trkpt lat="27.17448" lon="103.331123"><ele>2955.3208</ele><time>2026-08-09T01:49:01.000Z</time></trkpt>
        <trkpt lat="27.17449" lon="103.331073"><ele>2955.9683</ele><time>2026-08-09T01:49:14.000Z</time></trkpt>
        <trkpt lat="27.174532" lon="103.331045"><ele>2960.5664</ele><time>2026-08-09T01:53:13.000Z</time></trkpt>
        <trkpt lat="27.174505" lon="103.331086"><ele>2955.306</ele><time>2026-08-09T01:55:24.000Z</time></trkpt>
        <trkpt lat="27.174506" lon="103.331138"><ele>2957.1</ele><time>2026-08-09T01:55:44.000Z</time></trkpt>
        <trkpt lat="27.174488" lon="103.331185"><ele>2953.4612</ele><time>2026-08-09T01:56:05.000Z</time></trkpt>
        <trkpt lat="27.174443" lon="103.331208"><ele>2956.1453</ele><time>2026-08-09T01:57:25.000Z</time></trkpt>
        <trkpt lat="27.174383" lon="103.331234"><ele>2956.434</ele><time>2026-08-09T01:57:28.000Z</time></trkpt>
        <trkpt lat="27.174328" lon="103.331258"><ele>2956.7234</ele><time>2026-08-09T01:57:30.000Z</time></trkpt>
        <trkpt lat="27.174265" lon="103.331286"><ele>2957.2095</ele><time>2026-08-09T01:57:32.000Z</time></trkpt>
        <trkpt lat="27.174173" lon="103.331322"><ele>2957.5396</ele><time>2026-08-09T01:57:34.000Z</time></trkpt>
        <trkpt lat="27.174111" lon="103.331364"><ele>2957.735</ele><time>2026-08-09T01:57:36.000Z</time></trkpt>
        <trkpt lat="27.174064" lon="103.331421"><ele>2958.1482</ele><time>2026-08-09T01:57:38.000Z</time></trkpt>
        <trkpt lat="27.174035" lon="103.331461"><ele>2958.3389</ele><time>2026-08-09T01:57:39.000Z</time></trkpt>
        <trkpt lat="27.173988" lon="103.331504"><ele>2958.4182</ele><time>2026-08-09T01:57:41.000Z</time></trkpt>
        <trkpt lat="27.173944" lon="103.331527"><ele>2959.2139</ele><time>2026-08-09T01:57:43.000Z</time></trkpt>
        <trkpt lat="27.173901" lon="103.331558"><ele>2960.0635</ele><time>2026-08-09T01:57:45.000Z</time></trkpt>
        <trkpt lat="27.173882" lon="103.331577"><ele>2960.4905</ele><time>2026-08-09T01:57:46.000Z</time></trkpt>
        <trkpt lat="27.173865" lon="103.331591"><ele>2960.4905</ele><time>2026-08-09T01:57:47.000Z</time></trkpt>
        <trkpt lat="27.173819" lon="103.331607"><ele>2960.884</ele><time>2026-08-09T01:57:49.000Z</time></trkpt>
        <trkpt lat="27.173758" lon="103.331614"><ele>2961.6912</ele><time>2026-08-09T01:57:52.000Z</time></trkpt>
        <trkpt lat="27.173706" lon="103.33166"><ele>2962.2812</ele><time>2026-08-09T01:57:55.000Z</time></trkpt>
        <trkpt lat="27.173673" lon="103.331708"><ele>2962.544</ele><time>2026-08-09T01:57:57.000Z</time></trkpt>
        <trkpt lat="27.173627" lon="103.331758"><ele>2963.1462</ele><time>2026-08-09T01:57:59.000Z</time></trkpt>
        <trkpt lat="27.173576" lon="103.331808"><ele>2963.7278</ele><time>2026-08-09T01:58:01.000Z</time></trkpt>
        <trkpt lat="27.173532" lon="103.33186"><ele>2965.0037</ele><time>2026-08-09T01:58:03.000Z</time></trkpt>
        <trkpt lat="27.173487" lon="103.331899"><ele>2965.4312</ele><time>2026-08-09T01:58:05.000Z</time></trkpt>
        <trkpt lat="27.173451" lon="103.331951"><ele>2965.997</ele><time>2026-08-09T01:58:07.000Z</time></trkpt>
        <trkpt lat="27.173425" lon="103.332009"><ele>2966.3674</ele><time>2026-08-09T01:58:09.000Z</time></trkpt>
        <trkpt lat="27.173398" lon="103.332053"><ele>2966.3188</ele><time>2026-08-09T01:58:11.000Z</time></trkpt>
        <trkpt lat="27.173338" lon="103.332061"><ele>2966.1643</ele><time>2026-08-09T01:58:14.000Z</time></trkpt>
        <trkpt lat="27.173356" lon="103.332011"><ele>2966.0317</ele><time>2026-08-09T01:58:23.000Z</time></trkpt>
        <trkpt lat="27.173402" lon="103.332021"><ele>2966.1772</ele><time>2026-08-09T01:58:28.000Z</time></trkpt>
        <trkpt lat="27.173445" lon="103.331988"><ele>2966.1216</ele><time>2026-08-09T01:58:42.000Z</time></trkpt>
        <trkpt lat="27.173494" lon="103.331954"><ele>2965.771</ele><time>2026-08-09T01:58:45.000Z</time></trkpt>
        <trkpt lat="27.173523" lon="103.331916"><ele>2965.2754</ele><time>2026-08-09T01:58:47.000Z</time></trkpt>
        <trkpt lat="27.173558" lon="103.331868"><ele>2964.565</ele><time>2026-08-09T01:58:50.000Z</time></trkpt>
        <trkpt lat="27.173603" lon="103.331874"><ele>2963.929</ele><time>2026-08-09T01:59:30.000Z</time></trkpt>
        <trkpt lat="27.173647" lon="103.33185"><ele>2963.7249</ele><time>2026-08-09T01:59:32.000Z</time></trkpt>
        <trkpt lat="27.17371" lon="103.331808"><ele>2962.5098</ele><time>2026-08-09T01:59:34.000Z</time></trkpt>
        <trkpt lat="27.173778" lon="103.331758"><ele>2962.2195</ele><time>2026-08-09T01:59:36.000Z</time></trkpt>
        <trkpt lat="27.173801" lon="103.331695"><ele>2963.7349</ele><time>2026-08-09T01:59:38.000Z</time></trkpt>
        <trkpt lat="27.173804" lon="103.33164"><ele>2962.6077</ele><time>2026-08-09T01:59:40.000Z</time></trkpt>
        <trkpt lat="27.173851" lon="103.331594"><ele>2960.489</ele><time>2026-08-09T01:59:43.000Z</time></trkpt>
        <trkpt lat="27.173883" lon="103.331557"><ele>2959.7493</ele><time>2026-08-09T01:59:45.000Z</time></trkpt>
        <trkpt lat="27.173931" lon="103.331531"><ele>2958.789</ele><time>2026-08-09T01:59:50.000Z</time></trkpt>
        <trkpt lat="27.173948" lon="103.331592"><ele>2959.8928</ele><time>2026-08-09T02:00:01.000Z</time></trkpt>
        <trkpt lat="27.173956" lon="103.331665"><ele>2959.465</ele><time>2026-08-09T02:00:03.000Z</time></trkpt>
        <trkpt lat="27.173923" lon="103.331751"><ele>2959.876</ele><time>2026-08-09T02:00:04.000Z</time></trkpt>
        <trkpt lat="27.173916" lon="103.331808"><ele>2960.0303</ele><time>2026-08-09T02:00:05.000Z</time></trkpt>
        <trkpt lat="27.17393" lon="103.331892"><ele>2960.2</ele><time>2026-08-09T02:00:06.000Z</time></trkpt>
        <trkpt lat="27.173923" lon="103.331957"><ele>2960.1296</ele><time>2026-08-09T02:00:07.000Z</time></trkpt>
        <trkpt lat="27.173914" lon="103.332027"><ele>2959.881</ele><time>2026-08-09T02:00:08.000Z</time></trkpt>
        <trkpt lat="27.173932" lon="103.332099"><ele>2959.666</ele><time>2026-08-09T02:00:09.000Z</time></trkpt>
        <trkpt lat="27.173937" lon="103.332156"><ele>2959.403</ele><time>2026-08-09T02:00:10.000Z</time></trkpt>
        <trkpt lat="27.173954" lon="103.332226"><ele>2959.2341</ele><time>2026-08-09T02:00:11.000Z</time></trkpt>
        <trkpt lat="27.173961" lon="103.332291"><ele>2957.5159</ele><time>2026-08-09T02:00:13.000Z</time></trkpt>
        <trkpt lat="27.173963" lon="103.332386"><ele>2957.1177</ele><time>2026-08-09T02:00:15.000Z</time></trkpt>
        <trkpt lat="27.173967" lon="103.332463"><ele>2955.7688</ele><time>2026-08-09T02:00:17.000Z</time></trkpt>
        <trkpt lat="27.173956" lon="103.332545"><ele>2954.584</ele><time>2026-08-09T02:00:19.000Z</time></trkpt>
        <trkpt lat="27.173947" lon="103.332609"><ele>2954.1348</ele><time>2026-08-09T02:00:20.000Z</time></trkpt>
        <trkpt lat="27.173923" lon="103.332667"><ele>2953.522</ele><time>2026-08-09T02:00:21.000Z</time></trkpt>
        <trkpt lat="27.173863" lon="103.332711"><ele>2952.4424</ele><time>2026-08-09T02:00:22.000Z</time></trkpt>
        <trkpt lat="27.173794" lon="103.332766"><ele>2952.1812</ele><time>2026-08-09T02:00:23.000Z</time></trkpt>
        <trkpt lat="27.17374" lon="103.332809"><ele>2951.5613</ele><time>2026-08-09T02:00:24.000Z</time></trkpt>
        <trkpt lat="27.173675" lon="103.332851"><ele>2950.3533</ele><time>2026-08-09T02:00:25.000Z</time></trkpt>
        <trkpt lat="27.173608" lon="103.332885"><ele>2949.667</ele><time>2026-08-09T02:00:26.000Z</time></trkpt>
        <trkpt lat="27.173541" lon="103.332912"><ele>2949.3972</ele><time>2026-08-09T02:00:27.000Z</time></trkpt>
        <trkpt lat="27.173508" lon="103.333075"><ele>2948.9795</ele><time>2026-08-09T02:00:28.000Z</time></trkpt>
        <trkpt lat="27.173435" lon="103.333094"><ele>2947.9707</ele><time>2026-08-09T02:00:29.000Z</time></trkpt>
        <trkpt lat="27.173373" lon="103.33311"><ele>2947.4087</ele><time>2026-08-09T02:00:30.000Z</time></trkpt>
        <trkpt lat="27.173284" lon="103.333132"><ele>2945.784</ele><time>2026-08-09T02:00:32.000Z</time></trkpt>
        <trkpt lat="27.173207" lon="103.333143"><ele>2944.5737</ele><time>2026-08-09T02:00:34.000Z</time></trkpt>
        <trkpt lat="27.173163" lon="103.333171"><ele>2943.7107</ele><time>2026-08-09T02:00:35.000Z</time></trkpt>
        <trkpt lat="27.173107" lon="103.333186"><ele>2943.027</ele><time>2026-08-09T02:00:36.000Z</time></trkpt>
        <trkpt lat="27.173075" lon="103.333225"><ele>2942.6494</ele><time>2026-08-09T02:00:37.000Z</time></trkpt>
        <trkpt lat="27.173028" lon="103.333279"><ele>2942.917</ele><time>2026-08-09T02:00:38.000Z</time></trkpt>
        <trkpt lat="27.172992" lon="103.333333"><ele>2942.8364</ele><time>2026-08-09T02:00:39.000Z</time></trkpt>
        <trkpt lat="27.172952" lon="103.33336"><ele>2942.4846</ele><time>2026-08-09T02:00:40.000Z</time></trkpt>
        <trkpt lat="27.17291" lon="103.333398"><ele>2942.8367</ele><time>2026-08-09T02:00:41.000Z</time></trkpt>
        <trkpt lat="27.172861" lon="103.333442"><ele>2943.2166</ele><time>2026-08-09T02:00:42.000Z</time></trkpt>
        <trkpt lat="27.172809" lon="103.333489"><ele>2943.723</ele><time>2026-08-09T02:00:43.000Z</time></trkpt>
        <trkpt lat="27.172749" lon="103.333541"><ele>2943.7117</ele><time>2026-08-09T02:00:44.000Z</time></trkpt>
        <trkpt lat="27.172688" lon="103.333589"><ele>2945.2793</ele><time>2026-08-09T02:00:45.000Z</time></trkpt>
        <trkpt lat="27.172628" lon="103.333622"><ele>2945.5544</ele><time>2026-08-09T02:00:46.000Z</time></trkpt>
        <trkpt lat="27.172573" lon="103.333628"><ele>2946.4568</ele><time>2026-08-09T02:00:47.000Z</time></trkpt>
        <trkpt lat="27.172518" lon="103.333631"><ele>2947.572</ele><time>2026-08-09T02:00:48.000Z</time></trkpt>
        <trkpt lat="27.172463" lon="103.333608"><ele>2947.4224</ele><time>2026-08-09T02:00:49.000Z</time></trkpt>
        <trkpt lat="27.172412" lon="103.333598"><ele>2947.5107</ele><time>2026-08-09T02:00:50.000Z</time></trkpt>
        <trkpt lat="27.172363" lon="103.333588"><ele>2949.4553</ele><time>2026-08-09T02:00:51.000Z</time></trkpt>
        <trkpt lat="27.172272" lon="103.333569"><ele>2948.9038</ele><time>2026-08-09T02:00:53.000Z</time></trkpt>
        <trkpt lat="27.172196" lon="103.333554"><ele>2948.3943</ele><time>2026-08-09T02:00:55.000Z</time></trkpt>
        <trkpt lat="27.172217" lon="103.33362"><ele>2948.751</ele><time>2026-08-09T02:01:09.000Z</time></trkpt>
        <trkpt lat="27.172266" lon="103.333584"><ele>2949.017</ele><time>2026-08-09T02:01:13.000Z</time></trkpt>
        <trkpt lat="27.172323" lon="103.333593"><ele>2948.7607</ele><time>2026-08-09T02:01:15.000Z</time></trkpt>
        <trkpt lat="27.172395" lon="103.333626"><ele>2949.0688</ele><time>2026-08-09T02:01:17.000Z</time></trkpt>
        <trkpt lat="27.172501" lon="103.333678"><ele>2948.052</ele><time>2026-08-09T02:01:19.000Z</time></trkpt>
        <trkpt lat="27.172562" lon="103.333681"><ele>2947.6165</ele><time>2026-08-09T02:01:20.000Z</time></trkpt>
        <trkpt lat="27.172618" lon="103.333676"><ele>2946.7515</ele><time>2026-08-09T02:01:21.000Z</time></trkpt>
        <trkpt lat="27.172669" lon="103.333663"><ele>2946.2942</ele><time>2026-08-09T02:01:22.000Z</time></trkpt>
        <trkpt lat="27.172722" lon="103.333648"><ele>2945.9224</ele><time>2026-08-09T02:01:23.000Z</time></trkpt>
        <trkpt lat="27.172747" lon="103.333599"><ele>2945.4934</ele><time>2026-08-09T02:01:24.000Z</time></trkpt>
        <trkpt lat="27.172798" lon="103.333559"><ele>2944.691</ele><time>2026-08-09T02:01:25.000Z</time></trkpt>
        <trkpt lat="27.172844" lon="103.333518"><ele>2944.4194</ele><time>2026-08-09T02:01:26.000Z</time></trkpt>
        <trkpt lat="27.172891" lon="103.333476"><ele>2943.9385</ele><time>2026-08-09T02:01:27.000Z</time></trkpt>
        <trkpt lat="27.172939" lon="103.333432"><ele>2943.2432</ele><time>2026-08-09T02:01:28.000Z</time></trkpt>
        <trkpt lat="27.173" lon="103.333397"><ele>2942.8225</ele><time>2026-08-09T02:01:29.000Z</time></trkpt>
        <trkpt lat="27.173049" lon="103.333333"><ele>2942.6309</ele><time>2026-08-09T02:01:30.000Z</time></trkpt>
        <trkpt lat="27.173106" lon="103.333269"><ele>2941.943</ele><time>2026-08-09T02:01:31.000Z</time></trkpt>
        <trkpt lat="27.173149" lon="103.333237"><ele>2941.3018</ele><time>2026-08-09T02:01:32.000Z</time></trkpt>
        <trkpt lat="27.1732" lon="103.333194"><ele>2941.0762</ele><time>2026-08-09T02:01:33.000Z</time></trkpt>
        <trkpt lat="27.173253" lon="103.333173"><ele>2942.4795</ele><time>2026-08-09T02:01:34.000Z</time></trkpt>
        <trkpt lat="27.17331" lon="103.333178"><ele>2942.3606</ele><time>2026-08-09T02:01:35.000Z</time></trkpt>
        <trkpt lat="27.173369" lon="103.333181"><ele>2942.202</ele><time>2026-08-09T02:01:36.000Z</time></trkpt>
        <trkpt lat="27.173436" lon="103.333165"><ele>2941.8762</ele><time>2026-08-09T02:01:37.000Z</time></trkpt>
        <trkpt lat="27.173483" lon="103.333148"><ele>2941.807</ele><time>2026-08-09T02:01:38.000Z</time></trkpt>
        <trkpt lat="27.173537" lon="103.33314"><ele>2941.8364</ele><time>2026-08-09T02:01:39.000Z</time></trkpt>
        <trkpt lat="27.173608" lon="103.333117"><ele>2941.7817</ele><time>2026-08-09T02:01:40.000Z</time></trkpt>
        <trkpt lat="27.173666" lon="103.333096"><ele>2942.065</ele><time>2026-08-09T02:01:41.000Z</time></trkpt>
        <trkpt lat="27.173711" lon="103.333074"><ele>2942.4392</ele><time>2026-08-09T02:01:42.000Z</time></trkpt>
        <trkpt lat="27.173783" lon="103.333047"><ele>2942.4148</ele><time>2026-08-09T02:01:43.000Z</time></trkpt>
        <trkpt lat="27.173853" lon="103.33302"><ele>2942.453</ele><time>2026-08-09T02:01:44.000Z</time></trkpt>
        <trkpt lat="27.173917" lon="103.332983"><ele>2942.2468</ele><time>2026-08-09T02:01:45.000Z</time></trkpt>
        <trkpt lat="27.173982" lon="103.332967"><ele>2942.396</ele><time>2026-08-09T02:01:46.000Z</time></trkpt>
        <trkpt lat="27.174044" lon="103.332921"><ele>2942.216</ele><time>2026-08-09T02:01:47.000Z</time></trkpt>
        <trkpt lat="27.174088" lon="103.332893"><ele>2942.2712</ele><time>2026-08-09T02:01:48.000Z</time></trkpt>
        <trkpt lat="27.174133" lon="103.332858"><ele>2942.1365</ele><time>2026-08-09T02:01:49.000Z</time></trkpt>
        <trkpt lat="27.174172" lon="103.332817"><ele>2941.9602</ele><time>2026-08-09T02:01:50.000Z</time></trkpt>
        <trkpt lat="27.174206" lon="103.332765"><ele>2941.739</ele><time>2026-08-09T02:01:51.000Z</time></trkpt>
        <trkpt lat="27.17424" lon="103.332713"><ele>2941.6287</ele><time>2026-08-09T02:01:52.000Z</time></trkpt>
        <trkpt lat="27.174268" lon="103.332659"><ele>2941.106</ele><time>2026-08-09T02:01:53.000Z</time></trkpt>
        <trkpt lat="27.174297" lon="103.332582"><ele>2941.0933</ele><time>2026-08-09T02:01:54.000Z</time></trkpt>
        <trkpt lat="27.174294" lon="103.33253"><ele>2940.7444</ele><time>2026-08-09T02:01:55.000Z</time></trkpt>
        <trkpt lat="27.174308" lon="103.332449"><ele>2940.6416</ele><time>2026-08-09T02:01:56.000Z</time></trkpt>
        <trkpt lat="27.174323" lon="103.33239"><ele>2940.186</ele><time>2026-08-09T02:01:57.000Z</time></trkpt>
        <trkpt lat="27.174365" lon="103.332348"><ele>2939.6177</ele><time>2026-08-09T02:01:58.000Z</time></trkpt>
        <trkpt lat="27.174382" lon="103.332291"><ele>2939.6794</ele><time>2026-08-09T02:01:59.000Z</time></trkpt>
        <trkpt lat="27.174413" lon="103.332241"><ele>2939.7612</ele><time>2026-08-09T02:02:00.000Z</time></trkpt>
        <trkpt lat="27.174462" lon="103.332204"><ele>2939.579</ele><time>2026-08-09T02:02:01.000Z</time></trkpt>
        <trkpt lat="27.174486" lon="103.332159"><ele>2938.9885</ele><time>2026-08-09T02:02:02.000Z</time></trkpt>
        <trkpt lat="27.174571" lon="103.332131"><ele>2938.9656</ele><time>2026-08-09T02:02:04.000Z</time></trkpt>
        <trkpt lat="27.174624" lon="103.332142"><ele>2938.4143</ele><time>2026-08-09T02:02:06.000Z</time></trkpt>
        <trkpt lat="27.17468" lon="103.332132"><ele>2938.9932</ele><time>2026-08-09T02:02:08.000Z</time></trkpt>
        <trkpt lat="27.17473" lon="103.332148"><ele>2938.4414</ele><time>2026-08-09T02:02:10.000Z</time></trkpt>
        <trkpt lat="27.174789" lon="103.332137"><ele>2937.7576</ele><time>2026-08-09T02:02:16.000Z</time></trkpt>
        <trkpt lat="27.174845" lon="103.33216"><ele>2937.577</ele><time>2026-08-09T02:02:19.000Z</time></trkpt>
        <trkpt lat="27.174926" lon="103.332144"><ele>2937.385</ele><time>2026-08-09T02:02:21.000Z</time></trkpt>
        <trkpt lat="27.174991" lon="103.332154"><ele>2937.185</ele><time>2026-08-09T02:02:22.000Z</time></trkpt>
        <trkpt lat="27.175082" lon="103.332167"><ele>2937.8315</ele><time>2026-08-09T02:02:24.000Z</time></trkpt>
        <trkpt lat="27.175145" lon="103.332172"><ele>2938.1487</ele><time>2026-08-09T02:02:25.000Z</time></trkpt>
        <trkpt lat="27.175209" lon="103.332176"><ele>2938.713</ele><time>2026-08-09T02:02:26.000Z</time></trkpt>
        <trkpt lat="27.175257" lon="103.332185"><ele>2939.1296</ele><time>2026-08-09T02:02:27.000Z</time></trkpt>
        <trkpt lat="27.175295" lon="103.332225"><ele>2939.2825</ele><time>2026-08-09T02:02:28.000Z</time></trkpt>
        <trkpt lat="27.17535" lon="103.332232"><ele>2939.6167</ele><time>2026-08-09T02:02:29.000Z</time></trkpt>
        <trkpt lat="27.175417" lon="103.332232"><ele>2939.3284</ele><time>2026-08-09T02:02:31.000Z</time></trkpt>
        <trkpt lat="27.175471" lon="103.332233"><ele>2939.1882</ele><time>2026-08-09T02:02:33.000Z</time></trkpt>
        <trkpt lat="27.175529" lon="103.332205"><ele>2939.1902</ele><time>2026-08-09T02:02:35.000Z</time></trkpt>
        <trkpt lat="27.175581" lon="103.332176"><ele>2938.538</ele><time>2026-08-09T02:02:37.000Z</time></trkpt>
        <trkpt lat="27.175623" lon="103.332157"><ele>2938.3916</ele><time>2026-08-09T02:02:38.000Z</time></trkpt>
        <trkpt lat="27.175723" lon="103.332106"><ele>2936.2659</ele><time>2026-08-09T02:02:40.000Z</time></trkpt>
        <trkpt lat="27.175778" lon="103.33209"><ele>2935.847</ele><time>2026-08-09T02:02:41.000Z</time></trkpt>
        <trkpt lat="27.175869" lon="103.332132"><ele>2940.2244</ele><time>2026-08-09T02:02:43.000Z</time></trkpt>
        <trkpt lat="27.175936" lon="103.33219"><ele>2938.2683</ele><time>2026-08-09T02:02:45.000Z</time></trkpt>
        <trkpt lat="27.175972" lon="103.332226"><ele>2939.3604</ele><time>2026-08-09T02:02:46.000Z</time></trkpt>
        <trkpt lat="27.176007" lon="103.332275"><ele>2939.0095</ele><time>2026-08-09T02:02:47.000Z</time></trkpt>
        <trkpt lat="27.176078" lon="103.332311"><ele>2938.8877</ele><time>2026-08-09T02:02:49.000Z</time></trkpt>
        <trkpt lat="27.176131" lon="103.332365"><ele>2938.777</ele><time>2026-08-09T02:02:50.000Z</time></trkpt>
        <trkpt lat="27.176186" lon="103.332399"><ele>2938.8672</ele><time>2026-08-09T02:02:51.000Z</time></trkpt>
        <trkpt lat="27.17624" lon="103.332422"><ele>2938.2761</ele><time>2026-08-09T02:02:52.000Z</time></trkpt>
        <trkpt lat="27.176315" lon="103.332425"><ele>2938.1782</ele><time>2026-08-09T02:02:53.000Z</time></trkpt>
        <trkpt lat="27.176376" lon="103.332421"><ele>2937.988</ele><time>2026-08-09T02:02:54.000Z</time></trkpt>
        <trkpt lat="27.176449" lon="103.3324"><ele>2937.4553</ele><time>2026-08-09T02:02:55.000Z</time></trkpt>
        <trkpt lat="27.176514" lon="103.332388"><ele>2937.474</ele><time>2026-08-09T02:02:56.000Z</time></trkpt>
        <trkpt lat="27.176585" lon="103.332372"><ele>2936.8872</ele><time>2026-08-09T02:02:57.000Z</time></trkpt>
        <trkpt lat="27.176659" lon="103.332384"><ele>2935.6714</ele><time>2026-08-09T02:02:58.000Z</time></trkpt>
        <trkpt lat="27.176688" lon="103.332428"><ele>2934.8572</ele><time>2026-08-09T02:02:59.000Z</time></trkpt>
        <trkpt lat="27.176732" lon="103.33246"><ele>2937.9233</ele><time>2026-08-09T02:03:00.000Z</time></trkpt>
        <trkpt lat="27.176782" lon="103.332495"><ele>2937.7334</ele><time>2026-08-09T02:03:01.000Z</time></trkpt>
        <trkpt lat="27.176836" lon="103.332534"><ele>2937.0615</ele><time>2026-08-09T02:03:02.000Z</time></trkpt>
        <trkpt lat="27.176898" lon="103.332575"><ele>2936.99</ele><time>2026-08-09T02:03:03.000Z</time></trkpt>
        <trkpt lat="27.176951" lon="103.332605"><ele>2936.3904</ele><time>2026-08-09T02:03:04.000Z</time></trkpt>
        <trkpt lat="27.177016" lon="103.332611"><ele>2935.9375</ele><time>2026-08-09T02:03:05.000Z</time></trkpt>
        <trkpt lat="27.177083" lon="103.332574"><ele>2935.8696</ele><time>2026-08-09T02:03:06.000Z</time></trkpt>
        <trkpt lat="27.177128" lon="103.332559"><ele>2935.6692</ele><time>2026-08-09T02:03:07.000Z</time></trkpt>
        <trkpt lat="27.177222" lon="103.332549"><ele>2935.646</ele><time>2026-08-09T02:03:09.000Z</time></trkpt>
        <trkpt lat="27.177285" lon="103.332504"><ele>2935.5398</ele><time>2026-08-09T02:03:12.000Z</time></trkpt>
        <trkpt lat="27.177348" lon="103.332483"><ele>2935.3298</ele><time>2026-08-09T02:03:13.000Z</time></trkpt>
        <trkpt lat="27.177398" lon="103.332436"><ele>2934.928</ele><time>2026-08-09T02:03:14.000Z</time></trkpt>
        <trkpt lat="27.177429" lon="103.332394"><ele>2934.6606</ele><time>2026-08-09T02:03:15.000Z</time></trkpt>
        <trkpt lat="27.177474" lon="103.332354"><ele>2934.6487</ele><time>2026-08-09T02:03:16.000Z</time></trkpt>
        <trkpt lat="27.177534" lon="103.3323"><ele>2934.0244</ele><time>2026-08-09T02:03:17.000Z</time></trkpt>
        <trkpt lat="27.177573" lon="103.332259"><ele>2934.4387</ele><time>2026-08-09T02:03:18.000Z</time></trkpt>
        <trkpt lat="27.177643" lon="103.332185"><ele>2934.6755</ele><time>2026-08-09T02:03:20.000Z</time></trkpt>
        <trkpt lat="27.177683" lon="103.332143"><ele>2934.83</ele><time>2026-08-09T02:03:21.000Z</time></trkpt>
        <trkpt lat="27.177717" lon="103.332084"><ele>2934.9995</ele><time>2026-08-09T02:03:23.000Z</time></trkpt>
        <trkpt lat="27.177733" lon="103.331997"><ele>2934.5337</ele><time>2026-08-09T02:03:25.000Z</time></trkpt>
        <trkpt lat="27.177738" lon="103.33189"><ele>2933.6733</ele><time>2026-08-09T02:03:27.000Z</time></trkpt>
        <trkpt lat="27.177818" lon="103.331826"><ele>2932.7788</ele><time>2026-08-09T02:03:29.000Z</time></trkpt>
        <trkpt lat="27.177854" lon="103.331762"><ele>2931.5183</ele><time>2026-08-09T02:03:30.000Z</time></trkpt>
        <trkpt lat="27.177884" lon="103.331709"><ele>2932.6782</ele><time>2026-08-09T02:03:31.000Z</time></trkpt>
        <trkpt lat="27.177953" lon="103.331649"><ele>2930.8708</ele><time>2026-08-09T02:03:33.000Z</time></trkpt>
        <trkpt lat="27.178002" lon="103.331618"><ele>2930.1948</ele><time>2026-08-09T02:03:34.000Z</time></trkpt>
        <trkpt lat="27.17805" lon="103.331588"><ele>2928.9934</ele><time>2026-08-09T02:03:35.000Z</time></trkpt>
        <trkpt lat="27.178095" lon="103.331569"><ele>2928.5745</ele><time>2026-08-09T02:03:36.000Z</time></trkpt>
        <trkpt lat="27.178132" lon="103.331534"><ele>2927.9102</ele><time>2026-08-09T02:03:37.000Z</time></trkpt>
        <trkpt lat="27.178183" lon="103.331535"><ele>2927.083</ele><time>2026-08-09T02:03:38.000Z</time></trkpt>
        <trkpt lat="27.178261" lon="103.331512"><ele>2926.1099</ele><time>2026-08-09T02:03:40.000Z</time></trkpt>
        <trkpt lat="27.178339" lon="103.331494"><ele>2925.1177</ele><time>2026-08-09T02:03:42.000Z</time></trkpt>
        <trkpt lat="27.178386" lon="103.331486"><ele>2924.2473</ele><time>2026-08-09T02:03:43.000Z</time></trkpt>
        <trkpt lat="27.17846" lon="103.331481"><ele>2923.0823</ele><time>2026-08-09T02:03:45.000Z</time></trkpt>
        <trkpt lat="27.178535" lon="103.331476"><ele>2922.6294</ele><time>2026-08-09T02:03:47.000Z</time></trkpt>
        <trkpt lat="27.178607" lon="103.331498"><ele>2921.6094</ele><time>2026-08-09T02:03:49.000Z</time></trkpt>
        <trkpt lat="27.17867" lon="103.331526"><ele>2921.403</ele><time>2026-08-09T02:03:51.000Z</time></trkpt>
        <trkpt lat="27.178719" lon="103.331589"><ele>2921.1648</ele><time>2026-08-09T02:03:53.000Z</time></trkpt>
        <trkpt lat="27.17877" lon="103.33166"><ele>2920.292</ele><time>2026-08-09T02:03:55.000Z</time></trkpt>
        <trkpt lat="27.1788" lon="103.33172"><ele>2919.5247</ele><time>2026-08-09T02:03:57.000Z</time></trkpt>
        <trkpt lat="27.178819" lon="103.331784"><ele>2918.8184</ele><time>2026-08-09T02:03:59.000Z</time></trkpt>
        <trkpt lat="27.178833" lon="103.331842"><ele>2917.6865</ele><time>2026-08-09T02:04:01.000Z</time></trkpt>
        <trkpt lat="27.178846" lon="103.331896"><ele>2918.0444</ele><time>2026-08-09T02:04:03.000Z</time></trkpt>
        <trkpt lat="27.178858" lon="103.331946"><ele>2916.0867</ele><time>2026-08-09T02:04:05.000Z</time></trkpt>
        <trkpt lat="27.178871" lon="103.331997"><ele>2912.4773</ele><time>2026-08-09T02:04:12.000Z</time></trkpt>
        <trkpt lat="27.178884" lon="103.332053"><ele>2914.6628</ele><time>2026-08-09T02:05:29.000Z</time></trkpt>
        <trkpt lat="27.1789" lon="103.332116"><ele>2913.9177</ele><time>2026-08-09T02:05:32.000Z</time></trkpt>
        <trkpt lat="27.178927" lon="103.33223"><ele>2912.077</ele><time>2026-08-09T02:05:34.000Z</time></trkpt>
        <trkpt lat="27.178943" lon="103.332285"><ele>2911.3694</ele><time>2026-08-09T02:05:35.000Z</time></trkpt>
        <trkpt lat="27.178968" lon="103.332368"><ele>2908.4243</ele><time>2026-08-09T02:05:37.000Z</time></trkpt>
        <trkpt lat="27.178986" lon="103.33243"><ele>2907.2375</ele><time>2026-08-09T02:05:39.000Z</time></trkpt>
        <trkpt lat="27.179" lon="103.33248"><ele>2905.239</ele><time>2026-08-09T02:05:42.000Z</time></trkpt>
        <trkpt lat="27.179018" lon="103.332539"><ele>2905.3086</ele><time>2026-08-09T02:05:53.000Z</time></trkpt>
        <trkpt lat="27.179032" lon="103.332592"><ele>2904.1504</ele><time>2026-08-09T02:05:56.000Z</time></trkpt>
        <trkpt lat="27.17905" lon="103.332662"><ele>2902.856</ele><time>2026-08-09T02:05:59.000Z</time></trkpt>
        <trkpt lat="27.179071" lon="103.332774"><ele>2902.0498</ele><time>2026-08-09T02:06:01.000Z</time></trkpt>
        <trkpt lat="27.179084" lon="103.33285"><ele>2901.4734</ele><time>2026-08-09T02:06:02.000Z</time></trkpt>
        <trkpt lat="27.179103" lon="103.332917"><ele>2900.6138</ele><time>2026-08-09T02:06:03.000Z</time></trkpt>
        <trkpt lat="27.179132" lon="103.333004"><ele>2899.208</ele><time>2026-08-09T02:06:04.000Z</time></trkpt>
        <trkpt lat="27.179168" lon="103.333082"><ele>2896.9424</ele><time>2026-08-09T02:06:06.000Z</time></trkpt>
        <trkpt lat="27.179286" lon="103.333076"><ele>2895.9194</ele><time>2026-08-09T02:06:17.000Z</time></trkpt>
        <trkpt lat="27.179344" lon="103.333081"><ele>2896.3372</ele><time>2026-08-09T02:06:20.000Z</time></trkpt>
        <trkpt lat="27.179408" lon="103.333121"><ele>2894.7285</ele><time>2026-08-09T02:06:22.000Z</time></trkpt>
        <trkpt lat="27.17948" lon="103.333161"><ele>2893.541</ele><time>2026-08-09T02:06:24.000Z</time></trkpt>
        <trkpt lat="27.179516" lon="103.333108"><ele>2892.9397</ele><time>2026-08-09T02:06:26.000Z</time></trkpt>
        <trkpt lat="27.179465" lon="103.333131"><ele>2892.9177</ele><time>2026-08-09T02:06:33.000Z</time></trkpt>
        <trkpt lat="27.179423" lon="103.333105"><ele>2894.4585</ele><time>2026-08-09T02:06:35.000Z</time></trkpt>
        <trkpt lat="27.179371" lon="103.333121"><ele>2895.5625</ele><time>2026-08-09T02:06:38.000Z</time></trkpt>
        <trkpt lat="27.179326" lon="103.333128"><ele>2895.4563</ele><time>2026-08-09T02:06:44.000Z</time></trkpt>
        <trkpt lat="27.179284" lon="103.333105"><ele>2885.6572</ele><time>2026-08-09T02:06:50.000Z</time></trkpt>
        <trkpt lat="27.179214" lon="103.333132"><ele>2885.9797</ele><time>2026-08-09T02:06:52.000Z</time></trkpt>
        <trkpt lat="27.179167" lon="103.333134"><ele>2886.828</ele><time>2026-08-09T02:06:53.000Z</time></trkpt>
        <trkpt lat="27.179107" lon="103.333148"><ele>2886.876</ele><time>2026-08-09T02:06:54.000Z</time></trkpt>
        <trkpt lat="27.179019" lon="103.333168"><ele>2887.014</ele><time>2026-08-09T02:06:56.000Z</time></trkpt>
        <trkpt lat="27.178947" lon="103.333184"><ele>2887.616</ele><time>2026-08-09T02:06:57.000Z</time></trkpt>
        <trkpt lat="27.178868" lon="103.333202"><ele>2887.6353</ele><time>2026-08-09T02:06:58.000Z</time></trkpt>
        <trkpt lat="27.178823" lon="103.333212"><ele>2888.2192</ele><time>2026-08-09T02:06:59.000Z</time></trkpt>
        <trkpt lat="27.178744" lon="103.333239"><ele>2888.1484</ele><time>2026-08-09T02:07:00.000Z</time></trkpt>
        <trkpt lat="27.178679" lon="103.333288"><ele>2888.2827</ele><time>2026-08-09T02:07:01.000Z</time></trkpt>
        <trkpt lat="27.178622" lon="103.333332"><ele>2888.6775</ele><time>2026-08-09T02:07:02.000Z</time></trkpt>
        <trkpt lat="27.178566" lon="103.333375"><ele>2888.6326</ele><time>2026-08-09T02:07:03.000Z</time></trkpt>
        <trkpt lat="27.178528" lon="103.333409"><ele>2888.1028</ele><time>2026-08-09T02:07:04.000Z</time></trkpt>
        <trkpt lat="27.178482" lon="103.333453"><ele>2888.8652</ele><time>2026-08-09T02:07:05.000Z</time></trkpt>
        <trkpt lat="27.178446" lon="103.33351"><ele>2888.62</ele><time>2026-08-09T02:07:06.000Z</time></trkpt>
        <trkpt lat="27.178414" lon="103.333558"><ele>2888.295</ele><time>2026-08-09T02:07:07.000Z</time></trkpt>
        <trkpt lat="27.178381" lon="103.333604"><ele>2887.8982</ele><time>2026-08-09T02:07:08.000Z</time></trkpt>
        <trkpt lat="27.178312" lon="103.333693"><ele>2888.1555</ele><time>2026-08-09T02:07:10.000Z</time></trkpt>
        <trkpt lat="27.178258" lon="103.333758"><ele>2888.922</ele><time>2026-08-09T02:07:11.000Z</time></trkpt>
        <trkpt lat="27.178204" lon="103.333804"><ele>2888.925</ele><time>2026-08-09T02:07:12.000Z</time></trkpt>
        <trkpt lat="27.178168" lon="103.333868"><ele>2888.5916</ele><time>2026-08-09T02:07:13.000Z</time></trkpt>
        <trkpt lat="27.17814" lon="103.333951"><ele>2888.3782</ele><time>2026-08-09T02:07:14.000Z</time></trkpt>
        <trkpt lat="27.17811" lon="103.334022"><ele>2887.29</ele><time>2026-08-09T02:07:15.000Z</time></trkpt>
        <trkpt lat="27.178086" lon="103.334066"><ele>2887.6785</ele><time>2026-08-09T02:07:17.000Z</time></trkpt>
      </trkseg>
  </trk>
</gpx>